M I D A S
Marine Information and Data Acquisition System
Tripno 1498 of the Zeeleeuw from 2008-06-03 06:19:20 to 2008-06-03 13:06:08
Back to CruiseResearch ActivitiesStationsMapUnderway DataData graphs

EquipmentUnitsComment
TimeDGPSUTC
LatitudeDGPSDM.mWGS84
LongitudeDGPSDM.mWGS84
TemperatureSBE03/SBE38deg celciusITS90
ConductivitySBE21S/mITS90
SalinitySBE21 Practical Salinity Units
ChlorophylAChelsea fluorimeterg/lCalibrated in Aceton
Missing or incorrect values are displayed as -999
Sea surface data collected by the RV Zeeleeuw from 2008-06-03 06:22:14 to 2008-06-03 13:07:22
                                                                                    Next 1000 lines
Time Latitude Longitude Temperature Conductivity Salinity ChlorophylA
2008-06-03 06:22:24 51°13.623 2°56.045 19.7103 0.066494 0.36774 -1.766697
2008-06-03 06:22:29 51°13.624 2°56.042 19.686 0.066494 0.367733 -1.766697
2008-06-03 06:22:34 51°13.625 2°56.039 19.7166 0.066494 0.367733 -1.766697
2008-06-03 06:22:39 51°13.626 2°56.034 19.7391 0.066494 0.367733 -1.766697
2008-06-03 06:22:44 51°13.628 2°56.029 19.7039 0.066494 0.367733 -1.731873
2008-06-03 06:22:49 51°13.63 2°56.023 19.7312 0.066494 0.367733 -1.766697
2008-06-03 06:22:54 51°13.632 2°56.016 19.7298 0.066494 0.367727 -1.766697
2008-06-03 06:22:59 51°13.634 2°56.009 19.7254 0.066494 0.367727 -1.766697
2008-06-03 06:23:04 51°13.636 2°56.002 19.7208 0.066494 0.36772 -1.766697
2008-06-03 06:23:09 51°13.638 2°55.994 19.7318 0.066494 0.36772 -1.766697
2008-06-03 06:23:14 51°13.641 2°55.986 19.7257 0.066494 0.367727 -1.731873
2008-06-03 06:23:19 51°13.643 2°55.978 19.7395 0.066494 0.36772 -1.766697
2008-06-03 06:23:24 51°13.645 2°55.97 19.7536 0.066494 0.367713 -1.731873
2008-06-03 06:23:29 51°13.646 2°55.962 19.7491 0.066494 0.367713 -1.766697
2008-06-03 06:23:34 51°13.648 2°55.955 19.7573 0.066494 0.367713 -1.766697
2008-06-03 06:23:39 51°13.649 2°55.949 19.7573 0.066494 0.367713 -1.766697
2008-06-03 06:23:44 51°13.65 2°55.946 19.7535 0.066494 0.36772 -1.766697
2008-06-03 06:23:50 51°13.651 2°55.943 19.7466 0.066494 0.367707 -1.766697
2008-06-03 06:23:55 51°13.651 2°55.942 19.7305 0.066494 0.367707 -1.766697
2008-06-03 06:24:00 51°13.652 2°55.94 19.7257 0.066494 0.3677 -1.766697
2008-06-03 06:24:05 51°13.652 2°55.938 19.7173 0.066494 0.3677 -1.766697
2008-06-03 06:24:10 51°13.653 2°55.934 19.7206 0.066494 0.3677 -1.766697
2008-06-03 06:24:15 51°13.654 2°55.93 19.7114 0.066494 0.3677 -1.766697
2008-06-03 06:24:20 51°13.656 2°55.925 19.7173 0.066494 0.367707 -1.766697
2008-06-03 06:24:25 51°13.657 2°55.92 19.7148 0.066494 0.367707 -1.766697
2008-06-03 06:24:30 51°13.659 2°55.914 19.726 0.066494 0.367707 -1.766697
2008-06-03 06:24:35 51°13.661 2°55.907 19.7367 0.066494 0.3677 -1.766697
2008-06-03 06:24:40 51°13.663 2°55.9 19.7391 0.066494 0.3677 -1.766697
2008-06-03 06:24:45 51°13.665 2°55.892 19.7281 0.066494 0.3677 -1.766697
2008-06-03 06:24:50 51°13.667 2°55.884 19.7391 0.066494 0.367694 -1.731873
2008-06-03 06:24:55 51°13.669 2°55.876 19.7404 0.066494 0.367687 -1.766697
2008-06-03 06:25:00 51°13.671 2°55.868 19.7468 0.066494 0.367687 -1.766697
2008-06-03 06:25:05 51°13.673 2°55.86 19.7493 0.066494 0.36768 -1.766697
2008-06-03 06:25:10 51°13.675 2°55.852 19.7451 0.066494 0.36768 -1.766697
2008-06-03 06:25:15 51°13.677 2°55.844 19.7411 0.066494 0.36768 -1.766697
2008-06-03 06:25:20 51°13.68 2°55.836 19.7375 0.066494 0.367674 -1.766697
2008-06-03 06:25:25 51°13.682 2°55.827 19.7485 0.066494 0.367674 -1.766697
2008-06-03 06:25:30 51°13.683 2°55.82 19.752 0.066494 0.367674 -1.766697
2008-06-03 06:25:35 51°13.685 2°55.812 19.7495 0.066494 0.367674 -1.766697
2008-06-03 06:25:40 51°13.687 2°55.806 19.7468 0.066494 0.367674 -1.766697
2008-06-03 06:25:45 51°13.689 2°55.799 19.7458 0.066494 0.367667 -1.766697
2008-06-03 06:25:50 51°13.69 2°55.793 19.748 0.066494 0.367667 -1.766697
2008-06-03 06:25:55 51°13.692 2°55.788 19.7464 0.066494 0.367667 -1.766697
2008-06-03 06:26:00 51°13.693 2°55.782 19.7359 0.066494 0.367667 -1.766697
2008-06-03 06:26:04 51°13.694 2°55.779 19.7384 0.066494 0.36766 -1.766697
2008-06-03 06:26:10 51°13.695 2°55.773 19.7405 0.066494 0.36766 -1.766697
2008-06-03 06:26:15 51°13.696 2°55.769 19.7419 0.066494 0.36766 -1.731873
2008-06-03 06:26:20 51°13.696 2°55.765 19.7419 0.066494 0.367654 -1.766697
2008-06-03 06:26:25 51°13.697 2°55.761 19.748 0.066494 0.367654 -1.731873
2008-06-03 06:26:30 51°13.698 2°55.758 19.7526 0.066494 0.367647 -1.766697
2008-06-03 06:26:35 51°13.698 2°55.755 19.7532 0.066494 0.367647 -1.731873
2008-06-03 06:26:40 51°13.699 2°55.754 19.7543 0.066494 0.367647 -1.731873
2008-06-03 06:26:45 51°13.7 2°55.753 19.7583 0.066494 0.367647 -1.766697
2008-06-03 06:26:50 51°13.7 2°55.752 19.7671 0.066494 0.367667 -1.766697
2008-06-03 06:26:55 51°13.701 2°55.752 18.8397 0.066391 0.36735 -1.627401
2008-06-03 06:27:00 51°13.702 2°55.753 18.4724 0.074419 0.414024 -1.592577
2008-06-03 06:27:05 51°13.703 2°55.754 18.2699 0.072875 0.404871 -1.488105
2008-06-03 06:27:10 51°13.704 2°55.754 18.0831 0.072875 0.404871 -1.488105
2008-06-03 06:27:15 51°13.705 2°55.754 17.9623 0.133184 0.75625 -0.687152
2008-06-03 06:27:20 51°13.705 2°55.753 17.8613 0.588361 3.61872 4.606104
2008-06-03 06:27:25 51°13.705 2°55.751 17.8322 1.129361 7.310814 5.441882
2008-06-03 06:27:30 51°13.704 2°55.748 17.7591 1.716951 11.554696 8.401926
2008-06-03 06:27:35 51°13.704 2°55.745 17.7176 2.846214 20.183702 10.212777
2008-06-03 06:27:40 51°13.703 2°55.742 17.6942 2.846214 20.183702 10.212777
2008-06-03 06:27:45 51°13.702 2°55.74 17.6506 3.117869 22.457963 10.561018
2008-06-03 06:27:50 51°13.702 2°55.738 17.6364 3.140128 22.73766 10.735138
2008-06-03 06:27:55 51°13.702 2°55.737 17.6371 3.130398 22.753348 11.01373
2008-06-03 06:28:00 51°13.704 2°55.737 17.5986 3.14924 22.966895 11.361971
2008-06-03 06:28:05 51°13.707 2°55.737 17.5942 3.139614 22.939572 11.536091
2008-06-03 06:28:10 51°13.71 2°55.737 17.5746 3.139614 22.939572 11.536091
2008-06-03 06:28:15 51°13.715 2°55.736 17.5809 3.125225 22.863957 11.745035
2008-06-03 06:28:20 51°13.72 2°55.733 17.5832 3.131126 22.936982 11.77986
2008-06-03 06:28:24 51°13.725 2°55.729 17.5859 3.076679 22.519829 11.849508
2008-06-03 06:28:30 51°13.732 2°55.722 17.5138 3.123674 22.918226 11.95398
2008-06-03 06:28:35 51°13.739 2°55.715 17.4418 3.121086 22.91381 12.058452
2008-06-03 06:28:40 51°13.746 2°55.707 17.4262 3.121086 22.91381 12.058452
2008-06-03 06:28:44 51°13.753 2°55.701 17.4227 3.11591 22.886189 11.988804
2008-06-03 06:28:50 51°13.762 2°55.692 17.4106 3.110631 22.850561 11.988804
2008-06-03 06:28:55 51°13.771 2°55.683 17.4627 3.110838 22.852684 11.95398
2008-06-03 06:29:00 51°13.78 2°55.675 17.4392 3.114048 22.889866 12.162924
2008-06-03 06:29:05 51°13.789 2°55.667 17.4726 3.115601 22.930694 12.337044
2008-06-03 06:29:10 51°13.798 2°55.659 17.441 3.115601 22.930694 12.337044
2008-06-03 06:29:15 51°13.808 2°55.651 17.4492 3.117775 22.970377 12.441517
2008-06-03 06:29:20 51°13.818 2°55.643 17.4729 3.100385 22.84611 12.337044
2008-06-03 06:29:25 51°13.827 2°55.635 17.4676 3.077199 22.664437 12.267396
2008-06-03 06:29:30 51°13.838 2°55.628 17.4837 3.057326 22.500465 12.197748
2008-06-03 06:29:35 51°13.848 2°55.62 17.4419 3.024309 22.228866 12.197748
2008-06-03 06:29:40 51°13.858 2°55.612 17.4351 3.024309 22.228866 12.197748
2008-06-03 06:29:45 51°13.869 2°55.604 17.4167 2.987466 21.93154 12.197748
2008-06-03 06:29:50 51°13.879 2°55.596 17.4086 2.963043 21.734565 12.023628
2008-06-03 06:29:55 51°13.89 2°55.588 17.3911 2.952798 21.647578 11.988804
2008-06-03 06:29:59 51°13.899 2°55.582 17.393 2.944003 21.574467 12.058452
2008-06-03 06:30:05 51°13.911 2°55.572 17.3758 2.933241 21.493125 12.197748
2008-06-03 06:30:10 51°13.923 2°55.565 17.351 2.933241 21.493125 12.197748
2008-06-03 06:30:15 51°13.934 2°55.557 17.367 2.935414 21.517828 12.197748
2008-06-03 06:30:20 51°13.945 2°55.549 17.3496 2.940692 21.568886 12.197748
2008-06-03 06:30:24 51°13.953 2°55.542 17.3233 2.950729 21.658467 12.337044
2008-06-03 06:30:30 51°13.967 2°55.532 17.3304 2.964286 21.774484 12.406692
2008-06-03 06:30:35 51°13.978 2°55.525 17.3032 2.976393 21.878909 12.476341
2008-06-03 06:30:40 51°13.989 2°55.516 17.3008 2.976393 21.878909 12.476341
2008-06-03 06:30:44 51°13.997 2°55.509 17.2879 3.001334 22.08921 12.406692
2008-06-03 06:30:50 51°14.01 2°55.5 17.2932 3.027415 22.303448 12.545989
2008-06-03 06:30:55 51°14.021 2°55.492 17.288 3.045838 22.463247 12.615637
2008-06-03 06:31:00 51°14.031 2°55.484 17.3044 3.061363 22.596618 12.720109
2008-06-03 06:31:04 51°14.039 2°55.478 17.3094 3.076682 22.72624 12.720109
2008-06-03 06:31:10 51°14.051 2°55.469 17.3095 3.076682 22.72624 12.720109
2008-06-03 06:31:15 51°14.06 2°55.462 17.3228 3.089828 22.841437 12.789757
2008-06-03 06:31:20 51°14.07 2°55.455 17.312 3.094383 22.885784 12.824581
2008-06-03 06:31:25 51°14.079 2°55.448 17.3241 3.099972 22.934998 12.894229
2008-06-03 06:31:30 51°14.088 2°55.441 17.3256 3.094693 22.89373 12.789757
2008-06-03 06:31:35 51°14.096 2°55.434 17.3314 3.083618 22.801141 12.754933
2008-06-03 06:31:40 51°14.105 2°55.427 17.3407 3.083618 22.801141 12.754933
2008-06-03 06:31:45 51°14.115 2°55.419 17.3434 3.072956 22.712438 12.720109
2008-06-03 06:31:50 51°14.124 2°55.411 17.3452 3.066435 22.656625 12.615637
2008-06-03 06:31:55 51°14.133 2°55.403 17.3511 3.054739 22.560482 12.754933
2008-06-03 06:32:00 51°14.143 2°55.394 17.3446 3.038697 22.429028 12.754933
2008-06-03 06:32:05 51°14.153 2°55.385 17.3438 3.027415 22.33463 12.824581
2008-06-03 06:32:10 51°14.163 2°55.375 17.3511 3.027415 22.33463 12.824581
2008-06-03 06:32:15 51°14.172 2°55.365 17.3492 3.014478 22.22641 12.789757
2008-06-03 06:32:19 51°14.181 2°55.356 17.3605 2.996367 22.076275 12.720109
2008-06-03 06:32:25 51°14.192 2°55.343 17.3668 2.983742 21.969925 12.685285
2008-06-03 06:32:30 51°14.202 2°55.332 17.3768 2.97122 21.867525 12.720109
2008-06-03 06:32:35 51°14.212 2°55.32 17.368 2.9647 21.813824 12.685285
2008-06-03 06:32:40 51°14.221 2°55.308 17.3813 2.9647 21.813824 12.685285
2008-06-03 06:32:44 51°14.229 2°55.297 17.3645 2.960975 21.782351 12.754933
2008-06-03 06:32:50 51°14.24 2°55.282 17.3654 2.954248 21.725726 12.789757
2008-06-03 06:32:55 51°14.25 2°55.269 17.3905 2.944832 21.646924 12.789757
2008-06-03 06:33:00 51°14.259 2°55.255 17.3881 2.936036 21.572348 12.685285
2008-06-03 06:33:04 51°14.266 2°55.244 17.3456 2.925688 21.4857 12.720109
2008-06-03 06:33:10 51°14.277 2°55.227 17.3629 2.925688 21.4857 12.720109
2008-06-03 06:33:15 51°14.285 2°55.213 17.3325 2.921549 21.451395 12.754933
2008-06-03 06:33:20 51°14.294 2°55.198 17.3178 2.921549 21.452661 12.894229
2008-06-03 06:33:24 51°14.3 2°55.186 17.3015 2.925585 21.483596 12.824581
2008-06-03 06:33:30 51°14.311 2°55.167 17.2998 2.938623 21.587334 13.033525
2008-06-03 06:33:35 51°14.319 2°55.151 17.2895 2.956318 21.734364 13.312118
2008-06-03 06:33:40 51°14.328 2°55.135 17.28 2.956318 21.734364 13.312118
2008-06-03 06:33:45 51°14.338 2°55.119 17.2772 2.974531 21.888772 13.451414
2008-06-03 06:33:50 51°14.347 2°55.103 17.2368 2.994711 22.058492 13.625534
2008-06-03 06:33:55 51°14.356 2°55.085 17.219 3.01334 22.217598 13.730007
2008-06-03 06:34:00 51°14.365 2°55.067 17.2075 3.036523 22.412671 13.834479
2008-06-03 06:34:05 51°14.373 2°55.048 17.1923 3.052048 22.543902 14.043423
2008-06-03 06:34:10 51°14.383 2°55.029 17.1802 3.052048 22.543902 14.043423
2008-06-03 06:34:15 51°14.392 2°55.009 17.1365 3.076062 22.745814 14.008599
2008-06-03 06:34:19 51°14.399 2°54.993 17.1247 3.101008 22.95702 14.461312
2008-06-03 06:34:25 51°14.41 2°54.968 17.0896 3.129164 23.198048 14.635432
2008-06-03 06:34:30 51°14.42 2°54.946 17.0715 3.153596 23.41092 15.018497
2008-06-03 06:34:35 51°14.43 2°54.925 17.037 3.1772 23.615591 15.227441
2008-06-03 06:34:40 51°14.44 2°54.903 17.0168 3.1772 23.615591 15.227441
2008-06-03 06:34:45 51°14.45 2°54.882 16.9834 3.216543 23.950026 15.923922
2008-06-03 06:34:50 51°14.462 2°54.862 16.9636 3.271526 24.419563 16.690051
2008-06-03 06:34:55 51°14.475 2°54.844 16.9312 3.319783 24.836674 16.933819
2008-06-03 06:35:00 51°14.488 2°54.827 16.8968 3.345778 25.069684 17.351708
2008-06-03 06:35:04 51°14.499 2°54.814 16.9031 3.381924 25.386046 17.734773
2008-06-03 06:35:10 51°14.514 2°54.793 16.8754 3.381924 25.386046 17.734773
2008-06-03 06:35:15 51°14.528 2°54.777 16.8653 3.425738 25.768137 18.222309
2008-06-03 06:35:20 51°14.542 2°54.76 16.8468 3.465827 26.121907 18.709846
2008-06-03 06:35:24 51°14.553 2°54.748 16.8561 3.496492 26.394799 19.232207
2008-06-03 06:35:30 51°14.57 2°54.728 16.8487 3.536587 26.750594 19.336679
2008-06-03 06:35:35 51°14.583 2°54.712 16.8257 3.566428 27.022428 19.510799
2008-06-03 06:35:40 51°14.597 2°54.695 16.8147 3.566428 27.022428 19.510799
2008-06-03 06:35:44 51°14.608 2°54.683 16.8148 3.59026 27.23738 19.336679
2008-06-03 06:35:50 51°14.625 2°54.664 16.8058 3.60798 27.397987 19.197383
2008-06-03 06:35:55 51°14.639 2°54.648 16.7999 3.620415 27.514289 19.127735
2008-06-03 06:36:00 51°14.653 2°54.633 16.7731 3.629431 27.597477 18.814318
2008-06-03 06:36:05 51°14.667 2°54.618 16.7584 3.639173 27.689079 18.605374
2008-06-03 06:36:10 51°14.682 2°54.602 16.7464 3.639173 27.689079 18.605374
2008-06-03 06:36:15 51°14.696 2°54.587 16.7214 3.650261 27.79216 18.326782
2008-06-03 06:36:20 51°14.71 2°54.572 16.7079 3.657827 27.862778 18.083013
2008-06-03 06:36:25 51°14.724 2°54.557 16.701 3.667258 27.950349 17.943717
2008-06-03 06:36:30 51°14.738 2°54.542 16.6859 3.682389 28.087382 17.630301
2008-06-03 06:36:35 51°14.752 2°54.527 16.6768 3.702289 28.267263 17.45618
2008-06-03 06:36:40 51°14.766 2°54.512 16.6564 3.702289 28.267263 17.45618
2008-06-03 06:36:45 51°14.78 2°54.496 16.644 3.721464 28.441848 17.316884
2008-06-03 06:36:50 51°14.794 2°54.481 16.6396 3.746133 28.666859 17.212412
2008-06-03 06:36:55 51°14.808 2°54.465 16.63 3.763444 28.826215 17.142764
2008-06-03 06:37:00 51°14.822 2°54.449 16.6277 3.781067 28.986137 17.038292
2008-06-03 06:37:05 51°14.835 2°54.433 16.619 3.797031 29.134482 17.038292
2008-06-03 06:37:10 51°14.849 2°54.418 16.6189 3.797031 29.134482 17.038292
2008-06-03 06:37:15 51°14.862 2°54.402 16.6143 3.815485 29.304291 16.968644
2008-06-03 06:37:20 51°14.876 2°54.387 16.6119 3.829791 29.436554 16.968644
2008-06-03 06:37:24 51°14.887 2°54.375 16.6059 3.8413 29.543849 16.898995
2008-06-03 06:37:30 51°14.904 2°54.357 16.5932 3.850423 29.629655 16.864171
2008-06-03 06:37:35 51°14.917 2°54.341 16.5988 3.860066 29.719377 16.794523
2008-06-03 06:37:40 51°14.931 2°54.326 16.588 3.860066 29.719377 16.794523
2008-06-03 06:37:45 51°14.944 2°54.31 16.5866 3.86525 29.768577 16.829347
2008-06-03 06:37:50 51°14.957 2°54.294 16.5835 3.871782 29.829956 16.724875
2008-06-03 06:37:55 51°14.97 2°54.279 16.5789 3.876136 29.870896 16.829347
2008-06-03 06:38:00 51°14.983 2°54.263 16.5733 3.882461 29.929353 16.759699
2008-06-03 06:38:05 51°14.996 2°54.247 16.5772 3.888268 29.984602 16.794523
2008-06-03 06:38:10 51°15.009 2°54.232 16.568 3.888268 29.984602 16.794523
2008-06-03 06:38:15 51°15.022 2°54.216 16.565 3.89366 30.035719 16.898995
2008-06-03 06:38:20 51°15.035 2°54.199 16.5594 3.897185 30.069623 16.898995
2008-06-03 06:38:25 51°15.048 2°54.183 16.5596 3.900399 30.100868 16.898995
2008-06-03 06:38:30 51°15.061 2°54.166 16.5583 3.90434 30.13836 17.073116
2008-06-03 06:38:35 51°15.073 2°54.149 16.5581 3.906517 30.159503 17.038292
2008-06-03 06:38:40 51°15.086 2°54.131 16.5544 3.906517 30.159503 17.038292
2008-06-03 06:38:45 51°15.098 2°54.114 16.5518 3.91025 30.195236 17.142764
2008-06-03 06:38:50 51°15.111 2°54.097 16.5519 3.914087 30.231875 17.142764
2008-06-03 06:38:55 51°15.124 2°54.08 16.5536 3.916576 30.255715 17.142764
2008-06-03 06:39:00 51°15.137 2°54.064 16.5455 3.918235 30.272427 17.003468
2008-06-03 06:39:05 51°15.15 2°54.048 16.5413 3.919272 30.28318 16.864171
2008-06-03 06:39:10 51°15.163 2°54.032 16.5475 3.919272 30.28318 16.864171
2008-06-03 06:39:15 51°15.177 2°54.016 16.5441 3.921346 30.302854 16.690051
2008-06-03 06:39:20 51°15.19 2°54.001 16.5411 3.923212 30.320748 16.585579
2008-06-03 06:39:25 51°15.203 2°53.986 16.5438 3.924042 30.32911 16.585579
2008-06-03 06:39:30 51°15.217 2°53.972 16.5416 3.925493 30.34344 16.411459
2008-06-03 06:39:35 51°15.231 2°53.957 16.5376 3.92819 30.369709 16.272162
2008-06-03 06:39:40 51°15.245 2°53.943 16.5354 3.92819 30.369709 16.272162
2008-06-03 06:39:44 51°15.256 2°53.932 16.5327 3.928812 30.376906 16.132866
2008-06-03 06:39:50 51°15.272 2°53.916 16.5319 3.93016 30.389738 15.958746
2008-06-03 06:39:55 51°15.286 2°53.902 16.5294 3.931508 30.403186 15.784626
2008-06-03 06:40:00 51°15.3 2°53.888 16.5323 3.932337 30.410943 15.575681
2008-06-03 06:40:04 51°15.311 2°53.877 16.5268 3.933271 30.420208 15.227441
2008-06-03 06:40:10 51°15.328 2°53.86 16.521 3.933271 30.420208 15.227441
2008-06-03 06:40:15 51°15.342 2°53.847 16.5205 3.934619 30.433661 15.018497
2008-06-03 06:40:20 51°15.356 2°53.833 16.5149 3.936174 30.449519 14.70508
2008-06-03 06:40:24 51°15.367 2°53.822 16.5143 3.937522 30.462361 14.53096
2008-06-03 06:40:30 51°15.384 2°53.805 16.5104 3.938663 30.474035 14.356839
2008-06-03 06:40:35 51°15.398 2°53.791 16.51 3.940219 30.488668 14.043423
2008-06-03 06:40:40 51°15.412 2°53.778 16.5114 3.940219 30.488668 14.043423
2008-06-03 06:40:45 51°15.426 2°53.764 16.5016 3.941567 30.50275 13.834479
2008-06-03 06:40:50 51°15.44 2°53.75 16.5019 3.943641 30.52309 13.660358
2008-06-03 06:40:55 51°15.454 2°53.736 16.4977 3.945715 30.544672 13.451414
2008-06-03 06:41:00 51°15.468 2°53.723 16.492 3.947063 30.558765 13.207646
2008-06-03 06:41:05 51°15.482 2°53.709 16.492 3.947996 30.568667 13.172822
2008-06-03 06:41:10 51°15.496 2°53.695 16.4866 3.947996 30.568667 13.172822
2008-06-03 06:41:15 51°15.51 2°53.681 16.4892 3.947996 30.570524 12.963877
2008-06-03 06:41:19 51°15.521 2°53.67 16.4837 3.949759 30.5882 12.929053
2008-06-03 06:41:25 51°15.538 2°53.654 16.4785 3.951418 30.605606 12.859405
2008-06-03 06:41:30 51°15.552 2°53.64 16.4752 3.952663 30.618819 12.685285
2008-06-03 06:41:35 51°15.566 2°53.626 16.4733 3.953596 30.630591 12.615637
2008-06-03 06:41:40 51°15.58 2°53.613 16.4662 3.953596 30.630591 12.615637
2008-06-03 06:41:45 51°15.594 2°53.599 16.4673 3.95453 30.641126 12.545989
2008-06-03 06:41:50 51°15.608 2°53.586 16.4639 3.955152 30.648977 12.580813
2008-06-03 06:41:55 51°15.622 2°53.572 16.4574 3.956189 30.66041 12.371868
2008-06-03 06:42:00 51°15.636 2°53.559 16.4527 3.957226 30.672467 12.30222
2008-06-03 06:42:04 51°15.648 2°53.548 16.4526 3.958159 30.684254 12.267396
2008-06-03 06:42:10 51°15.665 2°53.532 16.4495 3.958159 30.684254 12.267396
2008-06-03 06:42:15 51°15.679 2°53.518 16.4382 3.959196 30.696316 12.232572
2008-06-03 06:42:20 51°15.693 2°53.505 16.4359 3.959611 30.702387 12.197748
2008-06-03 06:42:25 51°15.707 2°53.492 16.4319 3.960026 30.707214 12.232572
2008-06-03 06:42:30 51°15.721 2°53.479 16.4259 3.961063 30.719905 12.1281
2008-06-03 06:42:35 51°15.736 2°53.466 16.4196 3.961997 30.730459 12.1281
2008-06-03 06:42:40 51°15.75 2°53.452 16.4112 3.961997 30.730459 12.1281
2008-06-03 06:42:44 51°15.761 2°53.442 16.4067 3.962515 30.740547 12.093276
2008-06-03 06:42:50 51°15.778 2°53.427 16.4058 3.963967 30.758081 11.95398
2008-06-03 06:42:55 51°15.793 2°53.414 16.3975 3.964901 30.769892 11.884332
2008-06-03 06:43:00 51°15.807 2°53.402 16.3966 3.965834 30.78233 11.77986
2008-06-03 06:43:05 51°15.822 2°53.39 16.3849 3.966871 30.795669 11.675387
2008-06-03 06:43:10 51°15.837 2°53.378 16.3806 3.966871 30.795669 11.675387
2008-06-03 06:43:15 51°15.851 2°53.366 16.3692 3.967908 30.809638 11.605739
2008-06-03 06:43:20 51°15.866 2°53.354 16.3658 3.968738 30.820567 11.570915
2008-06-03 06:43:25 51°15.88 2°53.341 16.3602 3.969671 30.834273 11.466443
2008-06-03 06:43:30 51°15.895 2°53.33 16.3536 3.970501 30.845835 11.396795
2008-06-03 06:43:35 51°15.91 2°53.318 16.3527 3.971538 30.86045 11.257499
2008-06-03 06:43:40 51°15.924 2°53.305 16.3451 3.971538 30.86045 11.257499
2008-06-03 06:43:45 51°15.939 2°53.293 16.342 3.972783 30.878121 11.153027
2008-06-03 06:43:50 51°15.954 2°53.282 16.3379 3.973924 30.893647 11.048554
2008-06-03 06:43:55 51°15.968 2°53.27 16.3333 3.97465 30.903701 10.978906
2008-06-03 06:43:59 51°15.98 2°53.26 16.3261 3.975583 30.91807 10.944082
2008-06-03 06:44:05 51°15.998 2°53.246 16.3214 3.976517 30.931186 10.804786
2008-06-03 06:44:10 51°16.012 2°53.234 16.3168 3.976517 30.931186 10.804786
2008-06-03 06:44:15 51°16.027 2°53.223 16.3096 3.977554 30.944577 10.83961
2008-06-03 06:44:20 51°16.042 2°53.212 16.3072 3.97828 30.954646 10.735138
2008-06-03 06:44:24 51°16.054 2°53.203 16.3045 3.978695 30.963281 10.769962
2008-06-03 06:44:30 51°16.072 2°53.19 16.2973 3.979317 30.971826 10.66549
2008-06-03 06:44:35 51°16.086 2°53.179 16.2954 3.980043 30.983164 10.630666
2008-06-03 06:44:40 51°16.101 2°53.167 16.2896 3.980043 30.983164 10.630666
2008-06-03 06:44:44 51°16.113 2°53.159 16.2893 3.980769 30.993875 10.526194
2008-06-03 06:44:50 51°16.131 2°53.145 16.283 3.981391 31.004321 10.456545
2008-06-03 06:44:55 51°16.146 2°53.133 16.2827 3.982117 31.014408 10.386897
2008-06-03 06:45:00 51°16.16 2°53.122 16.2803 3.98274 31.024861 10.247601
2008-06-03 06:45:05 51°16.175 2°53.111 16.275 3.983258 31.033786 10.212777
2008-06-03 06:45:10 51°16.19 2°53.1 16.2687 3.983258 31.033786 10.212777
2008-06-03 06:45:15 51°16.205 2°53.089 16.2644 3.983881 31.043613 10.143129
2008-06-03 06:45:20 51°16.219 2°53.078 16.2578 3.984503 31.052179 10.038657
2008-06-03 06:45:25 51°16.234 2°53.067 16.2551 3.985021 31.059845 10.073481
2008-06-03 06:45:30 51°16.249 2°53.057 16.2498 3.98554 31.067514 9.969009
2008-06-03 06:45:35 51°16.264 2°53.047 16.243 3.986059 31.07455 9.760064
2008-06-03 06:45:39 51°16.276 2°53.038 16.2434 3.986059 31.07455 9.760064
2008-06-03 06:45:45 51°16.294 2°53.026 16.2383 3.986785 31.084657 9.794888
2008-06-03 06:45:50 51°16.309 2°53.015 16.2381 3.987511 31.094133 9.620768
2008-06-03 06:45:55 51°16.324 2°53.004 16.231 3.98834 31.107049 9.585944
2008-06-03 06:46:00 51°16.339 2°52.993 16.2276 3.988859 31.115997 9.481472
2008-06-03 06:46:05 51°16.353 2°52.981 16.229 3.989585 31.126751 9.446648
2008-06-03 06:46:10 51°16.368 2°52.97 16.2217 3.989585 31.126751 9.446648
2008-06-03 06:46:15 51°16.383 2°52.958 16.2209 3.990104 31.136341 9.272528
2008-06-03 06:46:20 51°16.397 2°52.946 16.2176 3.990622 31.144027 9.342176
2008-06-03 06:46:24 51°16.409 2°52.937 16.2155 3.991141 31.151078 9.272528
2008-06-03 06:46:30 51°16.427 2°52.924 16.2101 3.991348 31.156062 9.20288
2008-06-03 06:46:35 51°16.442 2°52.914 16.207 3.991452 31.16078 9.377
2008-06-03 06:46:40 51°16.457 2°52.904 16.2043 3.991452 31.16078 9.377
2008-06-03 06:46:44 51°16.469 2°52.897 16.1931 3.99166 31.165766 9.377
2008-06-03 06:46:50 51°16.487 2°52.885 16.1853 3.99166 31.167675 9.411824
2008-06-03 06:46:55 51°16.503 2°52.876 16.1783 3.99166 31.170221 9.446648
2008-06-03 06:47:00 51°16.518 2°52.867 16.1703 3.991763 31.174307 9.516296
2008-06-03 06:47:04 51°16.53 2°52.86 16.1642 3.991763 31.177491 9.516296
2008-06-03 06:47:10 51°16.548 2°52.85 16.1628 3.991763 31.177491 9.516296
2008-06-03 06:47:15 51°16.564 2°52.841 16.1557 3.991971 31.181844 9.481472
2008-06-03 06:47:20 51°16.579 2°52.833 16.1453 3.992282 31.190287 9.481472
2008-06-03 06:47:25 51°16.594 2°52.824 16.1438 3.992593 31.200008 9.446648
2008-06-03 06:47:30 51°16.609 2°52.815 16.1395 3.992905 31.20782 9.446648
2008-06-03 06:47:35 51°16.625 2°52.806 16.1324 3.993112 31.21537 9.411824
2008-06-03 06:47:40 51°16.64 2°52.797 16.1317 3.993112 31.21537 9.411824
2008-06-03 06:47:45 51°16.655 2°52.789 16.1213 3.99332 31.2242 9.342176
2008-06-03 06:47:50 51°16.67 2°52.78 16.1177 3.993527 31.231756 9.272528
2008-06-03 06:47:55 51°16.685 2°52.771 16.1161 3.993838 31.23958 9.20288
2008-06-03 06:47:59 51°16.697 2°52.764 16.108 3.994046 31.247142 9.20288
2008-06-03 06:48:05 51°16.715 2°52.753 16.1032 3.99415 31.252524 9.133231
2008-06-03 06:48:10 51°16.73 2°52.745 16.1039 3.99415 31.252524 9.133231
2008-06-03 06:48:15 51°16.745 2°52.736 16.0969 3.994357 31.258171 9.063583
2008-06-03 06:48:20 51°16.759 2°52.726 16.0914 3.994772 31.26819 9.028759
2008-06-03 06:48:25 51°16.774 2°52.716 16.0844 3.99498 31.274482 8.959111
2008-06-03 06:48:30 51°16.788 2°52.706 16.0868 3.995291 31.281681 8.889463
2008-06-03 06:48:35 51°16.803 2°52.696 16.0784 3.995602 31.289523 8.819815
2008-06-03 06:48:40 51°16.817 2°52.686 16.0753 3.995602 31.289523 8.819815
2008-06-03 06:48:44 51°16.829 2°52.677 16.0701 3.995706 31.294276 8.819815
2008-06-03 06:48:50 51°16.846 2°52.664 16.0665 3.996017 31.300839 8.715343
2008-06-03 06:48:55 51°16.86 2°52.654 16.0663 3.996432 31.30831 8.680519
2008-06-03 06:49:00 51°16.874 2°52.643 16.0616 3.996743 31.314236 8.680519
2008-06-03 06:49:05 51°16.888 2°52.633 16.0569 3.997158 31.322994 8.576047
2008-06-03 06:49:10 51°16.902 2°52.622 16.0514 3.997158 31.322994 8.576047
2008-06-03 06:49:15 51°16.917 2°52.612 16.0514 3.997469 31.330208 8.576047
2008-06-03 06:49:20 51°16.931 2°52.601 16.0407 3.997884 31.33833 8.541223
2008-06-03 06:49:24 51°16.942 2°52.593 16.0453 3.998299 31.345168 8.43675
2008-06-03 06:49:30 51°16.96 2°52.581 16.034 3.99861 31.351102 8.43675
2008-06-03 06:49:35 51°16.974 2°52.571 16.0346 3.999025 31.358587 8.332278
2008-06-03 06:49:40 51°16.988 2°52.56 16.0327 3.999025 31.358587 8.332278
2008-06-03 06:49:45 51°17.003 2°52.55 16.0259 3.999233 31.363617 8.26263
2008-06-03 06:49:50 51°17.017 2°52.541 16.0204 3.998299 31.358679 8.227806
2008-06-03 06:49:55 51°17.031 2°52.531 16.0199 3.998507 31.364354 8.123334
2008-06-03 06:50:00 51°17.046 2°52.52 16.0149 3.998818 31.370293 8.123334
2008-06-03 06:50:05 51°17.06 2°52.51 16.0134 3.999025 31.375972 8.053686
2008-06-03 06:50:10 51°17.074 2°52.5 16.0052 3.999025 31.375972 8.053686
2008-06-03 06:50:15 51°17.088 2°52.49 16.0082 4.001411 31.400696 7.984038
2008-06-03 06:50:20 51°17.102 2°52.479 16.0033 4.001722 31.406642 7.91439
2008-06-03 06:50:25 51°17.117 2°52.469 15.9993 4.002137 31.414141 7.879566
2008-06-03 06:50:30 51°17.131 2°52.459 15.9972 4.002448 31.418154 7.775093
2008-06-03 06:50:35 51°17.145 2°52.45 15.9935 4.002863 31.426948 7.670621
2008-06-03 06:50:39 51°17.157 2°52.442 15.9927 4.002863 31.426948 7.670621
2008-06-03 06:50:44 51°17.172 2°52.435 15.992 4.003278 31.433807 7.670621
2008-06-03 06:50:50 51°17.19 2°52.425 15.9871 4.003485 31.438852 7.531325
2008-06-03 06:50:55 51°17.205 2°52.419 15.9884 4.003797 31.44416 7.461677
2008-06-03 06:51:00 51°17.219 2°52.413 15.9867 4.004108 31.450116 7.461677
2008-06-03 06:51:04 51°17.232 2°52.408 15.9819 4.004419 31.454779 7.392029
2008-06-03 06:51:10 51°17.249 2°52.402 15.9779 4.004419 31.454779 7.392029
2008-06-03 06:51:15 51°17.265 2°52.397 15.9752 4.004626 31.457888 7.357205
2008-06-03 06:51:20 51°17.28 2°52.394 15.9758 4.004938 31.462552 7.357205
2008-06-03 06:51:24 51°17.292 2°52.391 15.9694 4.005145 31.466309 7.287557
2008-06-03 06:51:30 51°17.31 2°52.389 15.9732 4.005353 31.470714 7.183084
2008-06-03 06:51:35 51°17.325 2°52.386 15.9697 4.005767 31.476288 7.14826
2008-06-03 06:51:40 51°17.34 2°52.384 15.9672 4.005767 31.476288 7.14826
2008-06-03 06:51:45 51°17.356 2°52.382 15.9632 4.006182 31.483806 7.113436
2008-06-03 06:51:50 51°17.371 2°52.381 15.9652 4.00639 31.487566 7.008964
2008-06-03 06:51:55 51°17.386 2°52.379 15.962 4.006701 31.492235 6.97414
2008-06-03 06:52:00 51°17.401 2°52.378 15.9656 4.007116 31.497813 6.904492
2008-06-03 06:52:04 51°17.413 2°52.376 15.963 4.007427 31.502483 6.80002
2008-06-03 06:52:10 51°17.431 2°52.374 15.9614 4.007427 31.502483 6.80002
2008-06-03 06:52:15 51°17.447 2°52.373 15.9628 4.007946 31.509619 6.660724
2008-06-03 06:52:20 51°17.462 2°52.371 15.9642 4.008361 31.514551 6.6259
2008-06-03 06:52:25 51°17.477 2°52.37 15.966 4.008672 31.518575 6.556251
2008-06-03 06:52:30 51°17.492 2°52.369 15.9697 4.009087 31.523507 6.451779
2008-06-03 06:52:35 51°17.507 2°52.367 15.9685 4.009501 31.527792 6.347307
2008-06-03 06:52:40 51°17.523 2°52.366 15.9679 4.009501 31.527792 6.347307
2008-06-03 06:52:45 51°17.538 2°52.364 15.9741 4.009916 31.532725 6.347307
2008-06-03 06:52:50 51°17.553 2°52.363 15.9737 4.010227 31.535452 6.312483
2008-06-03 06:52:55 51°17.568 2°52.362 15.9766 4.010435 31.536621 6.208011
2008-06-03 06:53:00 51°17.583 2°52.36 15.9771 4.010642 31.537141 6.208011
2008-06-03 06:53:04 51°17.595 2°52.359 15.9793 4.010953 31.539218 6.173187
2008-06-03 06:53:10 51°17.614 2°52.357 15.9832 4.010953 31.539218 6.173187
2008-06-03 06:53:15 51°17.629 2°52.356 15.9861 4.011161 31.539738 6.138363
2008-06-03 06:53:20 51°17.644 2°52.354 15.9872 4.011264 31.539349 6.103539
2008-06-03 06:53:24 51°17.656 2°52.353 15.9893 4.011472 31.539868 6.033891
2008-06-03 06:53:30 51°17.674 2°52.352 15.9921 4.011576 31.53883 6.033891
2008-06-03 06:53:35 51°17.689 2°52.351 15.9929 4.011679 31.537792 5.964243
2008-06-03 06:53:40 51°17.704 2°52.35 15.9974 4.011679 31.537792 5.964243
2008-06-03 06:53:44 51°17.717 2°52.349 15.999 4.011783 31.536754 5.964243
2008-06-03 06:53:50 51°17.735 2°52.348 16 4.011887 31.536365 5.85977
2008-06-03 06:53:55 51°17.75 2°52.347 16.0044 4.01199 31.535328 5.85977
2008-06-03 06:54:00 51°17.765 2°52.346 16.0054 4.01199 31.533382 5.824946
2008-06-03 06:54:05 51°17.78 2°52.346 16.0096 4.01199 31.531436 5.824946
2008-06-03 06:54:10 51°17.795 2°52.349 16.0125 4.01199 31.531436 5.824946
2008-06-03 06:54:15 51°17.809 2°52.352 16.017 4.01199 31.528842 5.790122
2008-06-03 06:54:20 51°17.824 2°52.356 16.0184 4.01199 31.526897 5.790122
2008-06-03 06:54:25 51°17.839 2°52.361 16.0219 4.01199 31.524952 5.755298
2008-06-03 06:54:30 51°17.853 2°52.367 16.0245 4.01199 31.52236 5.755298
2008-06-03 06:54:35 51°17.868 2°52.373 16.0271 4.01199 31.519767 5.790122
2008-06-03 06:54:40 51°17.882 2°52.379 16.0325 4.01199 31.519767 5.790122
2008-06-03 06:54:45 51°17.896 2°52.386 16.0364 4.011886 31.516267 5.755298
2008-06-03 06:54:50 51°17.91 2°52.393 16.0385 4.011886 31.513676 5.755298
2008-06-03 06:54:55 51°17.924 2°52.402 16.0413 4.011679 31.50927 5.68565
2008-06-03 06:54:59 51°17.935 2°52.409 16.0439 4.011575 31.505124 5.790122
2008-06-03 06:55:05 51°17.951 2°52.422 16.0483 4.011368 31.500719 5.755298
2008-06-03 06:55:10 51°17.964 2°52.433 16.0533 4.011368 31.500719 5.755298
2008-06-03 06:55:15 51°17.976 2°52.445 16.0545 4.01116 31.495021 5.720474
2008-06-03 06:55:20 51°17.989 2°52.457 16.0565 4.011056 31.490879 5.68565
2008-06-03 06:55:24 51°17.999 2°52.468 16.06 4.010953 31.487384 5.650826
2008-06-03 06:55:30 51°18.013 2°52.484 16.0632 4.010745 31.482336 5.616002
2008-06-03 06:55:35 51°18.025 2°52.499 16.0678 4.010434 31.477675 5.616002
2008-06-03 06:55:40 51°18.037 2°52.514 16.0693 4.010434 31.477675 5.616002
2008-06-03 06:55:44 51°18.046 2°52.526 16.072 4.01033 31.472889 5.616002
2008-06-03 06:55:50 51°18.06 2°52.544 16.0773 4.010226 31.468752 5.581178
2008-06-03 06:55:55 51°18.071 2°52.559 16.0778 4.009915 31.464093 5.616002
2008-06-03 06:56:00 51°18.083 2°52.574 16.0807 4.009604 31.458143 5.581178
2008-06-03 06:56:04 51°18.092 2°52.586 16.0839 4.009293 31.45284 5.581178
2008-06-03 06:56:10 51°18.106 2°52.604 16.086 4.009293 31.45284 5.581178
2008-06-03 06:56:15 51°18.117 2°52.619 16.0889 4.008982 31.447538 5.546354
2008-06-03 06:56:20 51°18.129 2°52.634 16.0914 4.008774 31.442498 5.581178
2008-06-03 06:56:25 51°18.14 2°52.65 16.0931 4.008463 31.437198 5.616002
2008-06-03 06:56:30 51°18.15 2°52.667 16.0958 4.008152 31.431899 5.68565
2008-06-03 06:56:35 51°18.16 2°52.685 16.0991 4.007944 31.427507 5.790122
2008-06-03 06:56:40 51°18.169 2°52.703 16.0999 4.007944 31.427507 5.790122
2008-06-03 06:56:45 51°18.178 2°52.722 16.1047 4.007633 31.422855 5.720474
2008-06-03 06:56:50 51°18.187 2°52.741 16.1055 4.007426 31.418464 5.790122
2008-06-03 06:56:55 51°18.196 2°52.76 16.1065 4.007322 31.414337 5.755298
2008-06-03 06:57:00 51°18.205 2°52.779 16.1102 4.007218 31.411498 5.824946
2008-06-03 06:57:05 51°18.214 2°52.798 16.1104 4.007114 31.408016 5.824946
2008-06-03 06:57:10 51°18.223 2°52.818 16.1134 4.007114 31.408016 5.824946
2008-06-03 06:57:15 51°18.231 2°52.838 16.1133 4.006907 31.404272 5.824946
2008-06-03 06:57:19 51°18.238 2°52.854 16.1156 4.006803 31.401435 5.824946
2008-06-03 06:57:25 51°18.247 2°52.878 16.1172 4.006699 31.397954 5.790122
2008-06-03 06:57:30 51°18.255 2°52.899 16.1175 4.006492 31.394212 5.824946
2008-06-03 06:57:35 51°18.263 2°52.92 16.1206 4.006388 31.391376 5.85977
2008-06-03 06:57:40 51°18.27 2°52.941 16.1215 4.006388 31.391376 5.85977
2008-06-03 06:57:44 51°18.276 2°52.957 16.1209 4.006181 31.388279 5.929418
2008-06-03 06:57:50 51°18.286 2°52.982 16.1234 4.006077 31.386087 5.894594
2008-06-03 06:57:55 51°18.294 2°53.002 16.1247 4.005973 31.383252 5.929418
2008-06-03 06:58:00 51°18.302 2°53.022 16.1248 4.00587 31.38106 5.964243
2008-06-03 06:58:04 51°18.309 2°53.038 16.1268 4.00587 31.379774 5.894594
2008-06-03 06:58:10 51°18.318 2°53.062 16.1278 4.00587 31.379774 5.894594
2008-06-03 06:58:15 51°18.326 2°53.081 16.1282 4.005766 31.377583 5.894594
2008-06-03 06:58:20 51°18.334 2°53.101 16.1295 4.005662 31.375392 5.964243
2008-06-03 06:58:25 51°18.342 2°53.121 16.131 4.005558 31.373844 5.964243
2008-06-03 06:58:30 51°18.351 2°53.141 16.1304 4.005558 31.373201 5.894594
2008-06-03 06:58:35 51°18.359 2°53.161 16.133 4.005558 31.371273 5.999067
2008-06-03 06:58:40 51°18.367 2°53.181 16.1322 4.005558 31.371273 5.999067
2008-06-03 06:58:44 51°18.373 2°53.196 16.1331 4.005558 31.369987 5.964243
2008-06-03 06:58:50 51°18.383 2°53.22 16.1344 4.005455 31.36844 5.999067
2008-06-03 06:58:55 51°18.391 2°53.241 16.1352 4.005455 31.367797 5.999067
2008-06-03 06:59:00 51°18.399 2°53.261 16.1333 4.005558 31.367417 5.964243
2008-06-03 06:59:05 51°18.407 2°53.281 16.1347 4.005558 31.366775 5.964243
2008-06-03 06:59:10 51°18.415 2°53.301 16.1355 4.005558 31.366775 5.964243
2008-06-03 06:59:15 51°18.423 2°53.322 16.1364 4.005558 31.366132 6.033891
2008-06-03 06:59:20 51°18.43 2°53.342 16.137 4.005558 31.36549 5.999067
2008-06-03 06:59:25 51°18.438 2°53.363 16.1365 4.005662 31.36511 5.964243
2008-06-03 06:59:30 51°18.446 2°53.384 16.1372 4.005662 31.36511 5.999067
2008-06-03 06:59:35 51°18.453 2°53.405 16.1391 4.005766 31.365372 5.929418
2008-06-03 06:59:40 51°18.461 2°53.426 16.1374 4.005766 31.365372 5.929418
2008-06-03 06:59:45 51°18.468 2°53.447 16.1378 4.005766 31.365372 5.929418
2008-06-03 06:59:50 51°18.475 2°53.468 16.139 4.005869 31.364993 5.929418
2008-06-03 06:59:55 51°18.483 2°53.489 16.1388 4.005869 31.364993 5.964243
2008-06-03 07:00:00 51°18.49 2°53.509 16.1398 4.005973 31.365255 5.999067
2008-06-03 07:00:04 51°18.496 2°53.526 16.141 4.006077 31.365518 5.894594
2008-06-03 07:00:10 51°18.506 2°53.55 16.1408 4.006077 31.365518 5.894594
2008-06-03 07:00:15 51°18.513 2°53.571 16.1403 4.00618 31.366423 6.033891
2008-06-03 07:00:20 51°18.521 2°53.592 16.1396 4.00618 31.366423 5.964243
2008-06-03 07:00:24 51°18.527 2°53.608 16.1422 4.00618 31.36578 5.964243
2008-06-03 07:00:30 51°18.536 2°53.633 16.1414 4.00618 31.36578 5.964243
2008-06-03 07:00:35 51°18.543 2°53.654 16.1407 4.00618 31.365138 5.999067
2008-06-03 07:00:40 51°18.551 2°53.675 16.141 4.00618 31.365138 5.999067
2008-06-03 07:00:45 51°18.558 2°53.695 16.1411 4.006284 31.365401 6.033891
2008-06-03 07:00:50 51°18.565 2°53.716 16.1414 4.006388 31.365663 6.033891
2008-06-03 07:00:55 51°18.573 2°53.737 16.1447 4.006388 31.365663 5.999067
2008-06-03 07:01:00 51°18.58 2°53.758 16.145 4.006491 31.366568 5.999067
2008-06-03 07:01:05 51°18.588 2°53.778 16.1433 4.006491 31.365926 6.033891
2008-06-03 07:01:10 51°18.596 2°53.799 16.1442 4.006491 31.365926 6.033891
2008-06-03 07:01:15 51°18.604 2°53.819 16.1488 4.006595 31.36683 6.033891
2008-06-03 07:01:20 51°18.611 2°53.84 16.1465 4.006595 31.36683 6.033891
2008-06-03 07:01:25 51°18.619 2°53.861 16.1456 4.006699 31.367093 6.033891
2008-06-03 07:01:30 51°18.626 2°53.881 16.1478 4.006699 31.366451 6.068715
2008-06-03 07:01:35 51°18.633 2°53.902 16.1457 4.006803 31.366713 6.068715
2008-06-03 07:01:40 51°18.64 2°53.924 16.147 4.006803 31.366713 6.068715
2008-06-03 07:01:45 51°18.648 2°53.945 16.1461 3.998817 31.297059 6.033891
2008-06-03 07:01:50 51°18.654 2°53.966 16.1487 4.006906 31.366334 6.068715
2008-06-03 07:01:55 51°18.661 2°53.988 16.1513 4.006906 31.365692 6.068715
2008-06-03 07:02:00 51°18.668 2°54.009 16.1492 4.00701 31.366596 6.068715
2008-06-03 07:02:05 51°18.674 2°54.031 16.1513 4.006906 31.365049 6.068715
2008-06-03 07:02:10 51°18.681 2°54.053 16.1514 4.006906 31.365049 6.068715
2008-06-03 07:02:15 51°18.688 2°54.074 16.1508 4.00701 31.365954 6.033891
2008-06-03 07:02:20 51°18.694 2°54.095 16.1544 4.00701 31.365954 5.999067
2008-06-03 07:02:24 51°18.7 2°54.113 16.1541 4.00701 31.365312 6.033891
2008-06-03 07:02:30 51°18.708 2°54.138 16.1546 4.00701 31.364028 6.068715
2008-06-03 07:02:35 51°18.715 2°54.16 16.1558 4.00701 31.364028 6.033891
2008-06-03 07:02:40 51°18.722 2°54.181 16.1557 4.00701 31.364028 6.033891
2008-06-03 07:02:44 51°18.727 2°54.198 16.1566 4.00701 31.363386 6.033891
2008-06-03 07:02:50 51°18.736 2°54.224 16.1582 4.00701 31.362744 6.033891
2008-06-03 07:02:55 51°18.743 2°54.245 16.1583 4.00701 31.362102 5.964243
2008-06-03 07:03:00 51°18.75 2°54.266 16.1599 4.00701 31.36146 5.929418
2008-06-03 07:03:04 51°18.755 2°54.283 16.1613 4.00701 31.360176 5.999067
2008-06-03 07:03:10 51°18.764 2°54.309 16.1624 4.00701 31.360176 5.999067
2008-06-03 07:03:15 51°18.771 2°54.33 16.1642 4.00701 31.359534 6.033891
2008-06-03 07:03:20 51°18.777 2°54.352 16.1663 4.00701 31.358892 5.999067
2008-06-03 07:03:25 51°18.784 2°54.373 16.1682 4.006906 31.357988 5.999067
2008-06-03 07:03:30 51°18.791 2°54.395 16.17 4.006802 31.3558 5.999067
2008-06-03 07:03:35 51°18.798 2°54.416 16.1717 4.006802 31.354516 6.033891
2008-06-03 07:03:40 51°18.805 2°54.437 16.1739 4.006802 31.354516 6.033891
2008-06-03 07:03:45 51°18.812 2°54.458 16.1765 4.006802 31.353233 6.033891
2008-06-03 07:03:50 51°18.819 2°54.479 16.1773 4.006699 31.351687 6.068715
2008-06-03 07:03:55 51°18.826 2°54.501 16.1786 4.006595 31.348858 6.033891
2008-06-03 07:04:00 51°18.833 2°54.522 16.1811 4.006491 31.34603 6.103539
2008-06-03 07:04:05 51°18.84 2°54.544 16.183 4.006387 31.343843 6.173187
2008-06-03 07:04:10 51°18.847 2°54.565 16.1848 4.006387 31.343843 6.173187
2008-06-03 07:04:15 51°18.854 2°54.587 16.1869 4.006387 31.341919 6.138363
2008-06-03 07:04:20 51°18.861 2°54.608 16.1888 4.006284 31.339733 6.173187
2008-06-03 07:04:25 51°18.867 2°54.63 16.1908 4.00618 31.336906 6.277659
2008-06-03 07:04:30 51°18.874 2°54.651 16.1917 4.006076 31.33472 6.242835
2008-06-03 07:04:35 51°18.882 2°54.673 16.1938 4.005972 31.331893 6.208011
2008-06-03 07:04:40 51°18.889 2°54.694 16.1955 4.005972 31.331893 6.208011
2008-06-03 07:04:44 51°18.894 2°54.711 16.1971 4.005869 31.329067 6.242835
2008-06-03 07:04:50 51°18.903 2°54.737 16.2 4.005765 31.326241 6.312483
2008-06-03 07:04:55 51°18.91 2°54.758 16.2007 4.005661 31.324056 6.347307
2008-06-03 07:05:00 51°18.917 2°54.78 16.2019 4.005454 31.320327 6.347307
2008-06-03 07:05:05 51°18.924 2°54.801 16.2027 4.00535 31.318143 6.416955
2008-06-03 07:05:10 51°18.931 2°54.822 16.2047 4.00535 31.318143 6.416955
2008-06-03 07:05:15 51°18.938 2°54.844 16.2074 4.005143 31.314415 6.486603
2008-06-03 07:05:20 51°18.946 2°54.865 16.2079 4.005039 31.312231 6.486603
2008-06-03 07:05:24 51°18.951 2°54.882 16.21 4.004935 31.310047 6.486603
2008-06-03 07:05:30 51°18.96 2°54.907 16.2101 4.004831 31.307864 6.591076
2008-06-03 07:05:35 51°18.968 2°54.928 16.2123 4.004728 31.30504 6.556251
2008-06-03 07:05:40 51°18.975 2°54.949 16.2133 4.004728 31.30504 6.556251
2008-06-03 07:05:45 51°18.984 2°54.97 16.2147 4.004624 31.302857 6.6259
2008-06-03 07:05:50 51°18.991 2°54.991 16.216 4.00452 31.300675 6.591076
2008-06-03 07:05:55 51°18.999 2°55.012 16.2169 4.004416 31.298492 6.6259
2008-06-03 07:06:00 51°19.006 2°55.033 16.2178 4.004313 31.296309 6.660724
2008-06-03 07:06:05 51°19.014 2°55.054 16.2213 4.004209 31.294127 6.730372
2008-06-03 07:06:10 51°19.021 2°55.076 16.2192 4.004209 31.294127 6.730372
2008-06-03 07:06:15 51°19.028 2°55.097 16.2205 4.004105 31.291306 6.730372
2008-06-03 07:06:20 51°19.035 2°55.118 16.2203 4.004001 31.289763 6.80002
2008-06-03 07:06:25 51°19.043 2°55.14 16.2214 4.004001 31.287845 6.765196
2008-06-03 07:06:30 51°19.05 2°55.161 16.2214 4.004001 31.287206 6.834844
2008-06-03 07:06:35 51°19.057 2°55.183 16.2231 4.004001 31.285927 6.834844
2008-06-03 07:06:40 51°19.064 2°55.205 16.2218 4.004001 31.285927 6.834844
2008-06-03 07:06:45 51°19.071 2°55.226 16.2226 4.003898 31.284385 6.80002
2008-06-03 07:06:50 51°19.079 2°55.248 16.2234 4.003898 31.283107 6.834844
2008-06-03 07:06:55 51°19.086 2°55.269 16.2233 4.003898 31.283107 6.834844
2008-06-03 07:07:00 51°19.093 2°55.291 16.2242 4.003898 31.282468 6.869668
2008-06-03 07:07:04 51°19.099 2°55.308 16.2235 4.003898 31.281829 6.869668
2008-06-03 07:07:10 51°19.108 2°55.334 16.2243 4.003898 31.281829 6.869668
2008-06-03 07:07:15 51°19.115 2°55.355 16.2248 4.003898 31.281829 6.869668
2008-06-03 07:07:20 51°19.123 2°55.376 16.225 4.003898 31.28119 6.869668
2008-06-03 07:07:25 51°19.13 2°55.397 16.2272 4.003794 31.279648 6.904492
2008-06-03 07:07:30 51°19.137 2°55.419 16.227 4.003794 31.279648 6.904492
2008-06-03 07:07:35 51°19.144 2°55.442 16.2253 4.00369 31.278106 6.869668
2008-06-03 07:07:40 51°19.151 2°55.464 16.2265 4.00369 31.278106 6.869668
2008-06-03 07:07:45 51°19.158 2°55.486 16.2275 4.003586 31.277204 6.904492
2008-06-03 07:07:50 51°19.165 2°55.508 16.2276 4.003586 31.276565 6.939316
2008-06-03 07:07:55 51°19.172 2°55.529 16.2278 4.003586 31.275926 6.97414
2008-06-03 07:08:00 51°19.179 2°55.551 16.2268 4.003586 31.275287 7.043788
2008-06-03 07:08:05 51°19.187 2°55.572 16.2264 4.003586 31.274648 7.008964
2008-06-03 07:08:10 51°19.194 2°55.593 16.2256 4.003586 31.274648 7.008964
2008-06-03 07:08:15 51°19.202 2°55.615 16.228 4.003483 31.274384 7.008964
2008-06-03 07:08:20 51°19.209 2°55.636 16.2262 4.003483 31.273746 7.008964
2008-06-03 07:08:25 51°19.216 2°55.658 16.2271 4.003483 31.273746 7.008964
2008-06-03 07:08:30 51°19.223 2°55.68 16.2255 4.003379 31.272843 6.97414
2008-06-03 07:08:35 51°19.231 2°55.701 16.2257 4.003379 31.272843 7.008964
2008-06-03 07:08:40 51°19.238 2°55.723 16.2253 4.003379 31.272843 7.008964
2008-06-03 07:08:45 51°19.245 2°55.744 16.2256 4.003379 31.273482 7.078612
2008-06-03 07:08:50 51°19.252 2°55.766 16.2243 4.003379 31.272843 7.078612
2008-06-03 07:08:55 51°19.259 2°55.788 16.2234 4.003379 31.272843 7.043788
2008-06-03 07:09:00 51°19.267 2°55.809 16.2238 4.003379 31.272843 7.043788
2008-06-03 07:09:04 51°19.273 2°55.826 16.2233 4.003275 31.27194 7.043788
2008-06-03 07:09:10 51°19.281 2°55.852 16.2238 4.003275 31.27194 7.043788
2008-06-03 07:09:15 51°19.288 2°55.874 16.2226 4.003275 31.272579 7.113436
2008-06-03 07:09:20 51°19.295 2°55.895 16.2211 4.003275 31.272579 7.113436
2008-06-03 07:09:24 51°19.301 2°55.913 16.2215 4.003275 31.273218 7.14826
2008-06-03 07:09:30 51°19.31 2°55.939 16.2218 4.003275 31.273218 7.113436
2008-06-03 07:09:35 51°19.317 2°55.96 16.2201 4.003275 31.273856 7.078612
2008-06-03 07:09:40 51°19.323 2°55.982 16.2204 4.003275 31.273856 7.078612
2008-06-03 07:09:44 51°19.329 2°55.999 16.2185 4.003275 31.273856 7.113436
2008-06-03 07:09:50 51°19.336 2°56.025 16.2177 4.003275 31.274495 7.14826
2008-06-03 07:09:55 51°19.343 2°56.047 16.2179 4.003379 31.276037 7.183084
2008-06-03 07:10:00 51°19.35 2°56.069 16.2172 4.003379 31.276037 7.183084
2008-06-03 07:10:05 51°19.356 2°56.091 16.2152 4.003483 31.277579 7.183084
2008-06-03 07:10:10 51°19.363 2°56.112 16.215 4.003483 31.277579 7.183084
2008-06-03 07:10:15 51°19.37 2°56.134 16.2141 4.003483 31.278217 7.183084
2008-06-03 07:10:20 51°19.377 2°56.156 16.2146 4.003483 31.278217 7.217908
2008-06-03 07:10:25 51°19.384 2°56.178 16.2129 4.003483 31.278856 7.183084
2008-06-03 07:10:30 51°19.39 2°56.2 16.2123 4.003587 31.280398 7.217908
2008-06-03 07:10:35 51°19.396 2°56.223 16.2119 4.003483 31.280773 7.287557
2008-06-03 07:10:40 51°19.402 2°56.245 16.2121 4.003483 31.280773 7.287557
2008-06-03 07:10:45 51°19.407 2°56.268 16.2138 4.003483 31.281413 7.252733
2008-06-03 07:10:50 51°19.413 2°56.291 16.2097 4.003483 31.281413 7.322381
2008-06-03 07:10:55 51°19.418 2°56.313 16.2101 4.003483 31.282052 7.392029
2008-06-03 07:11:00 51°19.424 2°56.337 16.209 4.003483 31.282691 7.426853
2008-06-03 07:11:05 51°19.429 2°56.36 16.209 4.003379 31.282427 7.426853
2008-06-03 07:11:10 51°19.434 2°56.383 16.2107 4.003379 31.282427 7.426853
2008-06-03 07:11:15 51°19.439 2°56.406 16.2101 4.003379 31.283066 7.357205
2008-06-03 07:11:20 51°19.443 2°56.43 16.2072 4.003275 31.282802 7.461677
2008-06-03 07:11:25 51°19.448 2°56.453 16.2075 4.003068 31.280996 7.566149
2008-06-03 07:11:30 51°19.453 2°56.477 16.2076 4.002964 31.280732 7.635797
2008-06-03 07:11:35 51°19.457 2°56.5 16.2065 4.002861 31.280468 7.670621
2008-06-03 07:11:40 51°19.462 2°56.524 16.208 4.002861 31.280468 7.670621
2008-06-03 07:11:45 51°19.466 2°56.547 16.2072 4.002342 31.275953 7.670621
2008-06-03 07:11:50 51°19.471 2°56.57 16.2074 4.002653 31.278662 7.740269
2008-06-03 07:11:55 51°19.476 2°56.594 16.2081 4.002446 31.277495 7.775093
2008-06-03 07:12:00 51°19.481 2°56.617 16.2074 4.002238 31.276328 7.879566
2008-06-03 07:12:04 51°19.484 2°56.636 16.2102 4.002031 31.274522 7.949214
2008-06-03 07:12:10 51°19.49 2°56.664 16.2105 4.002031 31.274522 7.949214
2008-06-03 07:12:15 51°19.495 2°56.687 16.2111 4.001824 31.272716 8.018862
2008-06-03 07:12:20 51°19.5 2°56.71 16.2115 4.001616 31.271549 7.984038
2008-06-03 07:12:25 51°19.506 2°56.733 16.2122 4.001305 31.268839 8.08851
2008-06-03 07:12:30 51°19.511 2°56.755 16.214 4.001098 31.266394 8.192982
2008-06-03 07:12:35 51°19.517 2°56.778 16.2137 4.000683 31.262782 8.26263
2008-06-03 07:12:40 51°19.523 2°56.8 16.2155 4.000683 31.262782 8.26263
2008-06-03 07:12:45 51°19.529 2°56.823 16.2159 4.000268 31.258531 8.297454
2008-06-03 07:12:50 51°19.535 2°56.845 16.217 3.999957 31.255184 8.471574
2008-06-03 07:12:55 51°19.54 2°56.868 16.2184 3.999542 31.250933 8.43675
2008-06-03 07:13:00 51°19.546 2°56.89 16.2191 3.999127 31.246683 8.576047
2008-06-03 07:13:05 51°19.552 2°56.913 16.2219 3.998816 31.243336 8.645695
2008-06-03 07:13:10 51°19.558 2°56.935 16.2234 3.998816 31.243336 8.645695
2008-06-03 07:13:15 51°19.564 2°56.957 16.2245 3.998505 31.239989 8.750167
2008-06-03 07:13:19 51°19.569 2°56.975 16.2251 3.998194 31.236004 8.854639
2008-06-03 07:13:25 51°19.576 2°57.002 16.2284 3.997675 31.230852 8.889463
2008-06-03 07:13:30 51°19.581 2°57.025 16.2277 3.997364 31.226868 9.028759
2008-06-03 07:13:35 51°19.587 2°57.047 16.2292 3.996949 31.221982 9.063583
2008-06-03 07:13:40 51°19.593 2°57.069 16.23 3.996949 31.221982 9.063583
2008-06-03 07:13:44 51°19.598 2°57.087 16.2312 3.996534 31.217096 9.20288
2008-06-03 07:13:50 51°19.604 2°57.114 16.2325 3.996016 31.211308 9.272528
2008-06-03 07:13:55 51°19.61 2°57.136 16.2335 3.995704 31.207325 9.377
2008-06-03 07:14:00 51°19.615 2°57.159 16.2354 3.995186 31.202176 9.516296
2008-06-03 07:14:04 51°19.619 2°57.178 16.2341 3.994667 31.196389 9.55112
2008-06-03 07:14:10 51°19.625 2°57.206 16.2364 3.994667 31.196389 9.55112
2008-06-03 07:14:15 51°19.629 2°57.229 16.238 3.994149 31.19124 9.760064
2008-06-03 07:14:20 51°19.634 2°57.252 16.2383 3.99363 31.185455 9.72524
2008-06-03 07:14:25 51°19.638 2°57.276 16.2383 3.993319 31.181474 9.829713
2008-06-03 07:14:30 51°19.643 2°57.299 16.2392 3.992697 31.175424 9.969009
2008-06-03 07:14:35 51°19.648 2°57.322 16.24 3.992178 31.16964 10.108305
2008-06-03 07:14:40 51°19.653 2°57.345 16.2409 3.992178 31.16964 10.108305
2008-06-03 07:14:45 51°19.658 2°57.369 16.2421 3.991556 31.163591 10.212777
2008-06-03 07:14:50 51°19.662 2°57.392 16.2433 3.990934 31.156906 10.352073
2008-06-03 07:14:55 51°19.667 2°57.416 16.2428 3.990415 31.15176 10.421721
2008-06-03 07:15:00 51°19.67 2°57.44 16.2449 3.989896 31.146614 10.561018
2008-06-03 07:15:05 51°19.674 2°57.464 16.2462 3.989274 31.140567 10.735138
2008-06-03 07:15:10 51°19.678 2°57.487 16.2463 3.989274 31.140567 10.735138
2008-06-03 07:15:15 51°19.682 2°57.511 16.2474 3.988548 31.133618 10.83961
2008-06-03 07:15:20 51°19.686 2°57.535 16.2468 3.98803 31.127838 10.909258
2008-06-03 07:15:25 51°19.69 2°57.559 16.2478 3.987304 31.12089 11.083378
2008-06-03 07:15:30 51°19.694 2°57.582 16.2496 3.986681 31.114844 11.083378
2008-06-03 07:15:35 51°19.699 2°57.606 16.248 3.98637 31.110869 11.257499
2008-06-03 07:15:40 51°19.704 2°57.629 16.2502 3.98637 31.110869 11.257499
2008-06-03 07:15:45 51°19.708 2°57.652 16.2506 3.985541 31.10302 11.431619
2008-06-03 07:15:50 51°19.713 2°57.676 16.2509 3.984918 31.096976 11.570915
2008-06-03 07:15:55 51°19.717 2°57.699 16.2496 3.983881 31.08796 11.675387
2008-06-03 07:16:00 51°19.722 2°57.723 16.2514 3.983259 31.081917 11.849508
2008-06-03 07:16:04 51°19.726 2°57.741 16.2514 3.982533 31.074972 11.95398
2008-06-03 07:16:10 51°19.732 2°57.769 16.2525 3.982533 31.074972 11.95398
2008-06-03 07:16:15 51°19.737 2°57.792 16.2515 3.981911 31.068929 12.1281
2008-06-03 07:16:20 51°19.742 2°57.815 16.2528 3.980977 31.059549 12.267396
2008-06-03 07:16:24 51°19.746 2°57.834 16.2501 3.980148 31.052338 12.441517
2008-06-03 07:16:30 51°19.752 2°57.862 16.2517 3.979214 31.044226 12.511165
2008-06-03 07:16:35 51°19.756 2°57.885 16.2512 3.978281 31.035482 12.685285
2008-06-03 07:16:40 51°19.761 2°57.908 16.2501 3.978281 31.035482 12.685285
2008-06-03 07:16:45 51°19.766 2°57.931 16.2477 3.977555 31.029173 12.824581
2008-06-03 07:16:50 51°19.771 2°57.954 16.2473 3.976622 31.02043 12.998701
2008-06-03 07:16:55 51°19.776 2°57.977 16.2459 3.975688 31.012952 13.172822
2008-06-03 07:17:00 51°19.78 2°58 16.2449 3.974755 31.00421 13.381766
2008-06-03 07:17:05 51°19.785 2°58.023 16.2419 3.973822 30.9961 13.486238
2008-06-03 07:17:10 51°19.79 2°58.046 16.2413 3.973822 30.9961 13.486238
2008-06-03 07:17:15 51°19.795 2°58.069 16.2415 3.972577 30.98592 13.625534
2008-06-03 07:17:20 51°19.8 2°58.092 16.2385 3.971125 30.973939 13.938951
2008-06-03 07:17:25 51°19.804 2°58.115 16.2389 3.969985 30.965292 14.043423
2008-06-03 07:17:30 51°19.809 2°58.138 16.2347 3.968429 30.95241 14.252367
2008-06-03 07:17:35 51°19.813 2°58.161 16.2332 3.967185 30.942862 14.391664
2008-06-03 07:17:40 51°19.818 2°58.184 16.232 3.967185 30.942862 14.391664
2008-06-03 07:17:45 51°19.823 2°58.207 16.2267 3.965733 30.932143 14.426488
2008-06-03 07:17:50 51°19.827 2°58.23 16.2252 3.964385 30.921063 14.70508
2008-06-03 07:17:55 51°19.832 2°58.253 16.2237 3.963037 30.911244 14.739904
2008-06-03 07:18:00 51°19.836 2°58.276 16.22 3.961896 30.902596 14.948848
2008-06-03 07:18:05 51°19.841 2°58.299 16.2177 3.960548 30.892777 15.122969
2008-06-03 07:18:10 51°19.846 2°58.321 16.2157 3.960548 30.892777 15.122969
2008-06-03 07:18:15 51°19.85 2°58.344 16.2079 3.958992 30.880525 15.262265
2008-06-03 07:18:20 51°19.855 2°58.367 16.2086 3.957333 30.868632 15.401561
2008-06-03 07:18:25 51°19.859 2°58.39 16.2028 3.956503 30.863316 15.575681
2008-06-03 07:18:30 51°19.864 2°58.413 16.2008 3.954637 30.84899 15.714978
2008-06-03 07:18:35 51°19.868 2°58.436 16.1966 3.953704 30.843401 15.749802
2008-06-03 07:18:40 51°19.873 2°58.458 16.1897 3.953704 30.843401 15.749802
2008-06-03 07:18:44 51°19.876 2°58.477 16.1898 3.952148 30.832406 15.958746
2008-06-03 07:18:50 51°19.882 2°58.504 16.182 3.950178 30.818436 16.063218
2008-06-03 07:18:55 51°19.887 2°58.527 16.1798 3.948622 30.808069 16.237338
2008-06-03 07:19:00 51°19.891 2°58.549 16.1759 3.947067 30.7977 16.376635
2008-06-03 07:19:05 51°19.896 2°58.572 16.1745 3.945408 30.787058 16.481107
2008-06-03 07:19:10 51°19.901 2°58.595 16.1683 3.945408 30.787058 16.481107
2008-06-03 07:19:15 51°19.905 2°58.617 16.1666 3.943749 30.775156 16.481107
2008-06-03 07:19:20 51°19.91 2°58.64 16.1608 3.942504 30.767487 16.550755
2008-06-03 07:19:25 51°19.914 2°58.663 16.1607 3.941156 30.759545 16.655227
2008-06-03 07:19:30 51°19.919 2°58.686 16.1575 3.939705 30.750071 16.655227
2008-06-03 07:19:35 51°19.922 2°58.709 16.1537 3.938564 30.7433 16.759699
2008-06-03 07:19:40 51°19.926 2°58.732 16.1478 3.938564 30.7433 16.759699
2008-06-03 07:19:45 51°19.929 2°58.756 16.1452 3.937112 30.733824 16.794523
2008-06-03 07:19:50 51°19.933 2°58.779 16.1407 3.935764 30.725877 16.759699
2008-06-03 07:19:55 51°19.937 2°58.803 16.1353 3.934313 30.71577 16.864171
2008-06-03 07:19:59 51°19.94 2°58.821 16.1308 3.933379 30.71017 16.933819
2008-06-03 07:20:05 51°19.943 2°58.849 16.1266 3.932239 30.703395 16.933819
2008-06-03 07:20:10 51°19.947 2°58.873 16.127 3.932239 30.703395 16.933819
2008-06-03 07:20:15 51°19.951 2°58.896 16.1169 3.930891 30.694815 16.933819
2008-06-03 07:20:20 51°19.955 2°58.919 16.1159 3.92975 30.688666 16.968644
2008-06-03 07:20:25 51°19.958 2°58.942 16.1125 3.928195 30.678908 16.968644
2008-06-03 07:20:30 51°19.962 2°58.966 16.1076 3.927054 30.672757 16.933819
2008-06-03 07:20:35 51°19.966 2°58.989 16.1058 3.925706 30.665428 16.968644
2008-06-03 07:20:40 51°19.97 2°59.012 16.1043 3.925706 30.665428 16.968644
2008-06-03 07:20:44 51°19.974 2°59.031 16.1 3.924669 30.659548 16.933819
2008-06-03 07:20:50 51°19.978 2°59.059 16.0929 3.923632 30.653668 16.933819
2008-06-03 07:20:55 51°19.982 2°59.082 16.0894 3.922803 30.650218 16.968644
2008-06-03 07:21:00 51°19.987 2°59.105 16.0867 3.921559 30.643159 16.864171
2008-06-03 07:21:05 51°19.991 2°59.128 16.0799 3.920625 30.638178 16.864171
2008-06-03 07:21:10 51°19.996 2°59.151 16.0798 3.920625 30.638178 16.864171
2008-06-03 07:21:15 51°20 2°59.174 16.0772 3.919692 30.632569 16.864171
2008-06-03 07:21:20 51°20.005 2°59.196 16.0687 3.918448 30.624881 16.724875
2008-06-03 07:21:24 51°20.009 2°59.215 16.0683 3.917515 30.619898 16.655227
2008-06-03 07:21:30 51°20.015 2°59.242 16.0638 3.91627 30.613462 16.585579
2008-06-03 07:21:35 51°20.02 2°59.265 16.0628 3.915234 30.608829 16.585579
2008-06-03 07:21:40 51°20.025 2°59.288 16.0567 3.915234 30.608829 16.585579
2008-06-03 07:21:45 51°20.029 2°59.31 16.0505 3.914612 30.605924 16.481107
2008-06-03 07:21:50 51°20.034 2°59.333 16.0493 3.913678 30.601566 16.446283
2008-06-03 07:21:55 51°20.039 2°59.356 16.0453 3.912641 30.595677 16.446283
2008-06-03 07:22:00 51°20.044 2°59.379 16.0476 3.912019 30.593397 16.376635
2008-06-03 07:22:05 51°20.049 2°59.401 16.039 3.91119 30.588685 16.411459
2008-06-03 07:22:10 51°20.054 2°59.424 16.037 3.91119 30.588685 16.411459
2008-06-03 07:22:15 51°20.059 2°59.447 16.0355 3.910257 30.585579 16.306987
2008-06-03 07:22:20 51°20.063 2°59.47 16.0304 3.90922 30.579687 16.341811
2008-06-03 07:22:25 51°20.068 2°59.493 16.0273 3.90839 30.5756 16.376635
2008-06-03 07:22:30 51°20.073 2°59.516 16.0223 3.907872 30.574222 16.237338
2008-06-03 07:22:35 51°20.078 2°59.539 16.0243 3.907146 30.571037 16.132866
2008-06-03 07:22:40 51°20.083 2°59.561 16.0183 3.907146 30.571037 16.132866
2008-06-03 07:22:45 51°20.089 2°59.584 16.0153 3.906317 30.566949 16.16769
2008-06-03 07:22:50 51°20.095 2°59.606 16.014 3.905695 30.564039 16.063218
2008-06-03 07:22:55 51°20.101 2°59.628 16.0103 3.905073 30.561129 16.098042
2008-06-03 07:23:00 51°20.107 2°59.65 16.0096 3.90445 30.558219 16.063218
2008-06-03 07:23:04 51°20.112 2°59.668 16.0092 3.903828 30.555308 16.098042
2008-06-03 07:23:10 51°20.119 2°59.694 16.0088 3.903828 30.555308 16.098042
2008-06-03 07:23:15 51°20.125 2°59.715 16.0091 3.903206 30.553652 16.028394
2008-06-03 07:23:20 51°20.131 2°59.737 16.0049 3.902688 30.551017 15.99357
2008-06-03 07:23:25 51°20.138 2°59.759 16.0031 3.902273 30.549285 16.063218
2008-06-03 07:23:30 51°20.143 2°59.781 16.002 3.901858 30.548181 16.063218
2008-06-03 07:23:35 51°20.15 2°59.802 15.9969 3.901236 30.545896 16.16769
2008-06-03 07:23:40 51°20.156 2°59.824 15.9979 3.901236 30.545896 16.16769
2008-06-03 07:23:45 51°20.162 2°59.846 15.9984 3.900822 30.542909 16.132866
2008-06-03 07:23:50 51°20.168 2°59.868 15.999 3.900511 30.541453 16.16769
2008-06-03 07:23:55 51°20.175 2°59.889 15.9937 3.899992 30.538189 16.098042
2008-06-03 07:24:00 51°20.18 2°59.911 15.9936 3.899681 30.53736 16.063218
2008-06-03 07:24:05 51°20.186 2°59.933 15.9935 3.899266 30.535628 16.16769
2008-06-03 07:24:10 51°20.192 2°59.955 15.9917 3.899266 30.535628 16.16769
2008-06-03 07:24:15 51°20.198 2°59.977 15.9947 3.898852 30.533267 15.958746
2008-06-03 07:24:20 51°20.204 2°59.999 15.9942 3.898644 30.532087 15.923922
2008-06-03 07:24:25 51°20.21 3°0.021 15.9895 3.898437 30.530907 16.098042
2008-06-03 07:24:30 51°20.216 3°0.042 15.9917 3.898126 30.530077 15.958746
2008-06-03 07:24:35 51°20.221 3°0.065 15.9904 3.897918 30.529524 15.923922
2008-06-03 07:24:40 51°20.227 3°0.087 15.9907 3.897918 30.529524 15.923922
2008-06-03 07:24:45 51°20.232 3°0.109 15.9907 3.897711 30.528344 15.99357
2008-06-03 07:24:50 51°20.237 3°0.131 15.9893 3.897607 30.52744 15.99357
2008-06-03 07:24:55 51°20.243 3°0.153 15.989 3.8974 30.52626 16.028394
2008-06-03 07:25:00 51°20.248 3°0.175 15.9905 3.897193 30.525079 15.923922
2008-06-03 07:25:05 51°20.253 3°0.198 15.991 3.896985 30.524526 15.854274
2008-06-03 07:25:10 51°20.258 3°0.22 15.9914 3.896985 30.524526 15.854274
2008-06-03 07:25:15 51°20.263 3°0.242 15.9919 3.896882 30.523622 15.889098
2008-06-03 07:25:20 51°20.268 3°0.264 15.9916 3.896778 30.522718 15.889098
2008-06-03 07:25:24 51°20.272 3°0.282 15.9926 3.896674 30.522442 15.854274
2008-06-03 07:25:30 51°20.279 3°0.309 15.9937 3.896467 30.520634 15.81945
2008-06-03 07:25:35 51°20.284 3°0.331 15.9933 3.896363 30.519102 15.81945
2008-06-03 07:25:40 51°20.289 3°0.354 15.9944 3.896363 30.519102 15.81945
2008-06-03 07:25:45 51°20.294 3°0.376 15.993 3.896363 30.51973 15.749802
2008-06-03 07:25:50 51°20.299 3°0.398 15.9955 3.896363 30.519102 15.784626
2008-06-03 07:25:55 51°20.304 3°0.421 15.9945 3.896259 30.518198 15.749802
2008-06-03 07:26:00 51°20.309 3°0.443 15.9942 3.896259 30.517571 15.854274
2008-06-03 07:26:05 51°20.314 3°0.466 15.9956 3.896259 30.516944 15.81945
2008-06-03 07:26:10 51°20.319 3°0.488 15.9954 3.896259 30.516944 15.81945
2008-06-03 07:26:15 51°20.323 3°0.51 15.9978 3.896259 30.516317 15.81945
2008-06-03 07:26:20 51°20.329 3°0.533 15.9937 3.896259 30.516317 15.749802
2008-06-03 07:26:25 51°20.334 3°0.555 15.998 3.896156 30.515413 15.854274
2008-06-03 07:26:30 51°20.338 3°0.578 15.9955 3.896156 30.515413 15.784626
2008-06-03 07:26:35 51°20.343 3°0.6 15.9995 3.896156 30.514786 15.714978
2008-06-03 07:26:40 51°20.348 3°0.622 15.9976 3.896156 30.514786 15.714978
2008-06-03 07:26:45 51°20.352 3°0.645 15.9996 3.896156 30.514786 15.680154
2008-06-03 07:26:50 51°20.358 3°0.667 15.9975 3.896156 30.514786 15.714978
2008-06-03 07:26:55 51°20.362 3°0.689 15.9966 3.896052 30.513255 15.610505
2008-06-03 07:27:00 51°20.367 3°0.712 15.9991 3.896052 30.513255 15.575681
2008-06-03 07:27:05 51°20.372 3°0.734 15.9986 3.896052 30.513255 15.540857
2008-06-03 07:27:10 51°20.377 3°0.757 16.0007 3.896052 30.513255 15.540857
2008-06-03 07:27:15 51°20.382 3°0.779 15.9999 3.896052 30.512627 15.506033
2008-06-03 07:27:20 51°20.386 3°0.801 16.0007 3.896156 30.512904 15.506033
2008-06-03 07:27:25 51°20.391 3°0.824 16.0009 3.896052 30.512 15.540857
2008-06-03 07:27:30 51°20.396 3°0.846 15.9986 3.895948 30.511097 15.506033
2008-06-03 07:27:35 51°20.4 3°0.869 16.0006 3.896052 30.512 15.506033
2008-06-03 07:27:40 51°20.406 3°0.891 16.0004 3.896052 30.512 15.506033
2008-06-03 07:27:45 51°20.41 3°0.914 16.0007 3.896052 30.511373 15.471209
2008-06-03 07:27:50 51°20.415 3°0.936 16.0019 3.896052 30.511373 15.506033
2008-06-03 07:27:55 51°20.42 3°0.958 15.9998 3.896156 30.51165 15.436385
2008-06-03 07:28:00 51°20.424 3°0.981 16.0002 3.896156 30.511023 15.401561
2008-06-03 07:28:04 51°20.429 3°0.998 16.0002 3.896156 30.511023 15.331913
2008-06-03 07:28:10 51°20.433 3°1.025 16.0005 3.896156 30.511023 15.331913
2008-06-03 07:28:15 51°20.439 3°1.048 16.0013 3.896156 30.511023 15.262265
2008-06-03 07:28:20 51°20.443 3°1.071 16.0002 3.896156 30.510396 15.366737
2008-06-03 07:28:25 51°20.448 3°1.093 16.0024 3.896156 30.510396 15.262265
2008-06-03 07:28:30 51°20.453 3°1.115 16.0041 3.896156 30.510396 15.192617
2008-06-03 07:28:35 51°20.457 3°1.138 16.0019 3.896156 30.510396 15.122969
2008-06-03 07:28:40 51°20.462 3°1.161 16.0017 3.896156 30.510396 15.122969
2008-06-03 07:28:45 51°20.466 3°1.184 16.0048 3.896259 30.5113 15.192617
2008-06-03 07:28:50 51°20.47 3°1.206 16.0027 3.896259 30.5113 15.053321
2008-06-03 07:28:55 51°20.474 3°1.23 16.0042 3.896259 30.511927 15.053321
2008-06-03 07:29:00 51°20.478 3°1.253 16.0028 3.896363 30.512204 15.192617
2008-06-03 07:29:05 51°20.482 3°1.276 16.0025 3.896363 30.511577 15.053321
2008-06-03 07:29:10 51°20.485 3°1.299 16.0018 3.896363 30.511577 15.053321
2008-06-03 07:29:15 51°20.489 3°1.322 16.0042 3.896363 30.51095 15.192617
2008-06-03 07:29:20 51°20.493 3°1.346 16.0026 3.896467 30.511226 14.983672
2008-06-03 07:29:25 51°20.497 3°1.369 16.0026 3.89657 30.51213 14.914024
2008-06-03 07:29:30 51°20.501 3°1.393 16.0027 3.89657 30.51213 14.844376
2008-06-03 07:29:35 51°20.504 3°1.416 16.0048 3.89657 30.51213 14.774728
2008-06-03 07:29:40 51°20.508 3°1.439 16.0023 3.89657 30.51213 14.774728
2008-06-03 07:29:45 51°20.512 3°1.463 16.0032 3.89657 30.512757 14.809552
2008-06-03 07:29:50 51°20.516 3°1.486 16.005 3.89657 30.512757 14.70508
2008-06-03 07:29:55 51°20.52 3°1.509 16.0032 3.896467 30.511853 14.739904
2008-06-03 07:30:00 51°20.524 3°1.533 16.0045 3.89657 30.512757 14.635432
2008-06-03 07:30:05 51°20.528 3°1.556 16.0058 3.89657 30.51213 14.670256
2008-06-03 07:30:10 51°20.532 3°1.58 16.0047 3.89657 30.51213 14.670256
2008-06-03 07:30:15 51°20.536 3°1.603 16.0051 3.89657 30.51213 14.635432
2008-06-03 07:30:20 51°20.54 3°1.627 16.0047 3.896674 30.513034 14.565784
2008-06-03 07:30:25 51°20.544 3°1.65 16.0061 3.896778 30.513938 14.496136
2008-06-03 07:30:30 51°20.548 3°1.673 16.0051 3.896778 30.513311 14.565784
2008-06-03 07:30:35 51°20.553 3°1.696 16.0023 3.896778 30.513311 14.53096
2008-06-03 07:30:40 51°20.557 3°1.72 16.0048 3.896778 30.513311 14.53096
2008-06-03 07:30:45 51°20.561 3°1.743 16.0056 3.896881 30.513587 14.461312
2008-06-03 07:30:50 51°20.565 3°1.766 16.0031 3.896881 30.513587 14.461312
2008-06-03 07:30:55 51°20.57 3°1.79 16.0035 3.896881 30.513587 14.426488
2008-06-03 07:31:00 51°20.574 3°1.813 16.0044 3.896881 30.513587 14.391664
2008-06-03 07:31:05 51°20.578 3°1.836 16.003 3.896881 30.514214 14.426488
2008-06-03 07:31:10 51°20.583 3°1.859 16.0009 3.896881 30.514214 14.426488
2008-06-03 07:31:15 51°20.588 3°1.881 16.0019 3.896881 30.514214 14.426488
2008-06-03 07:31:20 51°20.593 3°1.904 16.0036 3.896881 30.514841 14.391664
2008-06-03 07:31:25 51°20.598 3°1.926 16.0009 3.896881 30.514841 14.356839
2008-06-03 07:31:30 51°20.603 3°1.949 15.9996 3.896881 30.514841 14.496136
2008-06-03 07:31:35 51°20.609 3°1.971 15.9998 3.896881 30.514841 14.426488
2008-06-03 07:31:40 51°20.615 3°1.993 15.9995 3.896881 30.514841 14.426488
2008-06-03 07:31:45 51°20.62 3°2.015 16.0001 3.896882 30.516095 14.53096
2008-06-03 07:31:50 51°20.625 3°2.038 16.0007 3.896882 30.516095 14.461312
2008-06-03 07:31:55 51°20.63 3°2.06 16.0031 3.896985 30.517626 14.391664
2008-06-03 07:32:00 51°20.635 3°2.083 16.0022 3.896985 30.518253 14.53096
2008-06-03 07:32:05 51°20.64 3°2.105 16.0003 3.897089 30.519157 14.461312
2008-06-03 07:32:10 51°20.645 3°2.128 15.9989 3.897089 30.519157 14.461312
2008-06-03 07:32:15 51°20.65 3°2.15 16.0011 3.897089 30.519157 14.356839
2008-06-03 07:32:20 51°20.654 3°2.173 15.9973 3.897296 30.520965 14.391664
2008-06-03 07:32:24 51°20.658 3°2.192 15.9966 3.897296 30.520337 14.356839
2008-06-03 07:32:30 51°20.664 3°2.219 15.9947 3.897504 30.522145 14.287191
2008-06-03 07:32:35 51°20.668 3°2.241 15.9944 3.897815 30.525484 14.356839
2008-06-03 07:32:40 51°20.673 3°2.264 15.9941 3.897815 30.525484 14.356839
2008-06-03 07:32:45 51°20.678 3°2.287 15.9926 3.898022 30.527291 14.217543
2008-06-03 07:32:50 51°20.683 3°2.309 15.9921 3.898333 30.53063 14.287191
2008-06-03 07:32:55 51°20.688 3°2.332 15.9925 3.898644 30.533969 14.252367
2008-06-03 07:33:00 51°20.694 3°2.354 15.9914 3.899059 30.538213 14.078247
2008-06-03 07:33:05 51°20.699 3°2.376 15.9934 3.899577 30.54336 14.147895
2008-06-03 07:33:10 51°20.705 3°2.398 15.9912 3.899577 30.54336 14.147895
2008-06-03 07:33:15 51°20.711 3°2.421 15.9902 3.899992 30.548231 14.008599
2008-06-03 07:33:20 51°20.717 3°2.443 15.9946 3.900718 30.555188 13.869303
2008-06-03 07:33:25 51°20.722 3°2.465 15.9915 3.901133 30.559432 13.869303
2008-06-03 07:33:30 51°20.727 3°2.488 15.9901 3.901548 30.563677 13.730007
2008-06-03 07:33:35 51°20.732 3°2.51 15.9888 3.901962 30.567922 13.869303
2008-06-03 07:33:40 51°20.737 3°2.533 15.9901 3.901962 30.567922 13.869303
2008-06-03 07:33:45 51°20.743 3°2.556 15.9882 3.902273 30.571263 13.799655
2008-06-03 07:33:50 51°20.749 3°2.578 15.9897 3.902481 30.572443 13.834479
2008-06-03 07:33:55 51°20.755 3°2.6 15.9857 3.902585 30.573347 13.869303
2008-06-03 07:34:00 51°20.761 3°2.622 15.9845 3.902792 30.575155 14.008599
2008-06-03 07:34:05 51°20.767 3°2.644 15.9821 3.902481 30.573071 13.938951
2008-06-03 07:34:10 51°20.773 3°2.666 15.984 3.902481 30.573071 13.938951
2008-06-03 07:34:15 51°20.779 3°2.688 15.9811 3.902377 30.572795 14.113071
2008-06-03 07:34:20 51°20.786 3°2.71 15.9843 3.90217 30.571615 14.252367
2008-06-03 07:34:25 51°20.792 3°2.732 15.9829 3.902792 30.577669 14.565784
2008-06-03 07:34:30 51°20.798 3°2.754 15.9833 3.902274 30.574405 14.70508
2008-06-03 07:34:35 51°20.804 3°2.777 15.9823 3.902585 30.578375 15.018497
2008-06-03 07:34:40 51°20.81 3°2.799 15.9813 3.902585 30.578375 15.018497
2008-06-03 07:34:44 51°20.815 3°2.817 15.9806 3.902377 30.577824 14.948848
2008-06-03 07:34:50 51°20.822 3°2.843 15.9778 3.902481 30.578728 15.053321
2008-06-03 07:34:55 51°20.829 3°2.865 15.9796 3.902377 30.578453 14.983672
2008-06-03 07:35:00 51°20.835 3°2.887 15.9759 3.902688 30.581166 14.914024
2008-06-03 07:35:05 51°20.841 3°2.909 15.976 3.902999 30.583879 15.018497
2008-06-03 07:35:10 51°20.846 3°2.931 15.9768 3.902999 30.583879 15.018497
2008-06-03 07:35:15 51°20.852 3°2.953 15.9746 3.902896 30.582975 14.983672
2008-06-03 07:35:20 51°20.858 3°2.975 15.9734 3.903414 30.588755 15.088145
2008-06-03 07:35:25 51°20.864 3°2.997 15.9749 3.903207 30.587575 15.157793
2008-06-03 07:35:30 51°20.87 3°3.019 15.9703 3.903518 30.591546 15.088145
2008-06-03 07:35:35 51°20.876 3°3.041 15.9701 3.903829 30.594889 15.157793
2008-06-03 07:35:40 51°20.881 3°3.063 15.969 3.903829 30.594889 15.157793
2008-06-03 07:35:45 51°20.887 3°3.085 15.9672 3.903933 30.596423 15.018497
2008-06-03 07:35:50 51°20.893 3°3.107 15.9676 3.904244 30.600395 14.948848
2008-06-03 07:35:55 51°20.899 3°3.129 15.9634 3.904762 30.605548 14.8792
2008-06-03 07:36:00 51°20.904 3°3.151 15.9662 3.905073 30.608891 14.774728
2008-06-03 07:36:05 51°20.91 3°3.173 15.9659 3.905903 30.617388 14.70508
2008-06-03 07:36:10 51°20.916 3°3.195 15.9626 3.905903 30.617388 14.70508
2008-06-03 07:36:15 51°20.922 3°3.217 15.9634 3.906732 30.625886 14.70508
2008-06-03 07:36:20 51°20.927 3°3.238 15.9632 3.907251 30.631671 14.600608
2008-06-03 07:36:25 51°20.933 3°3.26 15.9614 3.907666 30.635921 14.70508
2008-06-03 07:36:30 51°20.939 3°3.282 15.9634 3.907873 30.638991 14.600608
2008-06-03 07:36:35 51°20.945 3°3.304 15.9618 3.908703 30.646231 14.426488
2008-06-03 07:36:40 51°20.95 3°3.326 15.9627 3.908703 30.646231 14.426488
2008-06-03 07:36:45 51°20.956 3°3.348 15.9631 3.909014 30.649577 14.391664
2008-06-03 07:36:50 51°20.961 3°3.37 15.9621 3.90974 30.656543 14.182719
2008-06-03 07:36:55 51°20.967 3°3.392 15.9608 3.909843 30.658078 14.078247
2008-06-03 07:37:00 51°20.972 3°3.414 15.9601 3.910569 30.665045 13.904127
2008-06-03 07:37:05 51°20.978 3°3.435 15.9604 3.910776 30.666856 13.625534
2008-06-03 07:37:10 51°20.984 3°3.457 15.9551 3.910776 30.666856 13.625534
2008-06-03 07:37:15 51°20.99 3°3.479 15.9572 3.911191 30.671107 13.555886
2008-06-03 07:37:20 51°20.995 3°3.501 15.9555 3.911191 30.670476 13.346942
2008-06-03 07:37:25 51°21.001 3°3.523 15.9543 3.91171 30.675633 13.172822
2008-06-03 07:37:30 51°21.007 3°3.545 15.957 3.91171 30.676265 12.998701
2008-06-03 07:37:35 51°21.013 3°3.567 15.9527 3.911917 30.678706 12.998701
2008-06-03 07:37:40 51°21.018 3°3.589 15.954 3.911917 30.678706 12.998701
2008-06-03 07:37:45 51°21.024 3°3.611 15.9539 3.912332 30.682959 12.929053
2008-06-03 07:37:50 51°21.03 3°3.633 15.9528 3.912332 30.68359 12.824581
2008-06-03 07:37:55 51°21.035 3°3.655 15.9545 3.912436 30.685127 12.824581
2008-06-03 07:38:00 51°21.04 3°3.677 15.9561 3.912436 30.685758 12.720109
2008-06-03 07:38:05 51°21.045 3°3.699 15.9536 3.912539 30.687926 12.789757
2008-06-03 07:38:10 51°21.05 3°3.722 15.954 3.912539 30.687926 12.789757
2008-06-03 07:38:15 51°21.055 3°3.744 15.9536 3.912436 30.687653 12.789757
2008-06-03 07:38:20 51°21.061 3°3.766 15.9525 3.911917 30.683757 12.650461
2008-06-03 07:38:25 51°21.066 3°3.787 15.9544 3.912332 30.687379 12.859405
2008-06-03 07:38:30 51°21.072 3°3.81 15.9546 3.912228 30.685842 12.720109
2008-06-03 07:38:35 51°21.078 3°3.831 15.9521 3.912228 30.685842 12.685285
2008-06-03 07:38:40 51°21.084 3°3.853 15.9522 3.912228 30.685842 12.685285
2008-06-03 07:38:44 51°21.088 3°3.871 15.9518 3.912125 30.684936 12.650461
2008-06-03 07:38:50 51°21.095 3°3.897 15.9518 3.912021 30.684662 12.615637
2008-06-03 07:38:55 51°21.101 3°3.918 15.9521 3.911917 30.684388 12.650461
2008-06-03 07:39:00 51°21.107 3°3.94 15.9529 3.911814 30.682852 12.615637
2008-06-03 07:39:04 51°21.111 3°3.957 15.9531 3.91171 30.682578 12.545989
2008-06-03 07:39:10 51°21.118 3°3.983 15.9523 3.91171 30.682578 12.545989
2008-06-03 07:39:15 51°21.124 3°4.005 15.9534 3.91171 30.683209 12.545989
2008-06-03 07:39:20 51°21.13 3°4.027 15.9526 3.911606 30.682304 12.511165
2008-06-03 07:39:25 51°21.136 3°4.048 15.9526 3.911502 30.681398 12.441517
2008-06-03 07:39:30 51°21.142 3°4.07 15.9531 3.911502 30.681398 12.441517
2008-06-03 07:39:35 51°21.148 3°4.091 15.9517 3.911502 30.680767 12.441517
2008-06-03 07:39:40 51°21.153 3°4.113 15.951 3.911502 30.680767 12.441517
2008-06-03 07:39:45 51°21.159 3°4.135 15.9511 3.911502 30.680135 12.406692
2008-06-03 07:39:50 51°21.165 3°4.157 15.9516 3.911606 30.681041 12.511165
2008-06-03 07:39:55 51°21.171 3°4.178 15.951 3.911606 30.681672 12.545989
2008-06-03 07:40:00 51°21.176 3°4.2 15.9515 3.91171 30.682578 12.511165
2008-06-03 07:40:05 51°21.181 3°4.222 15.9507 3.91171 30.682578 12.371868
2008-06-03 07:40:10 51°21.186 3°4.244 15.9516 3.91171 30.682578 12.371868
2008-06-03 07:40:15 51°21.191 3°4.267 15.9528 3.911814 30.684746 12.406692
2008-06-03 07:40:20 51°21.196 3°4.289 15.9499 3.912021 30.686557 12.406692
2008-06-03 07:40:25 51°21.201 3°4.312 15.9492 3.912228 30.688368 12.441517
2008-06-03 07:40:30 51°21.206 3°4.335 15.9487 3.912436 30.689547 12.371868
2008-06-03 07:40:35 51°21.211 3°4.357 15.9499 3.912643 30.691358 12.371868
2008-06-03 07:40:40 51°21.216 3°4.38 15.9477 3.912643 30.691358 12.371868
2008-06-03 07:40:45 51°21.221 3°4.402 15.9501 3.91285 30.693801 12.197748
2008-06-03 07:40:50 51°21.226 3°4.425 15.9482 3.913162 30.696517 12.337044
2008-06-03 07:40:55 51°21.232 3°4.446 15.9468 3.913369 30.698329 12.337044
2008-06-03 07:41:00 51°21.238 3°4.469 15.9477 3.91368 30.701677 12.232572
2008-06-03 07:41:05 51°21.244 3°4.49 15.9479 3.913887 30.70412 12.197748
2008-06-03 07:41:10 51°21.25 3°4.512 15.9496 3.913887 30.70412 12.197748
2008-06-03 07:41:15 51°21.256 3°4.534 15.9489 3.913991 30.705026 12.1281
2008-06-03 07:41:20 51°21.262 3°4.556 15.9473 3.914198 30.707469 12.058452
2008-06-03 07:41:24 51°21.267 3°4.574 15.9479 3.914406 30.70928 12.058452
2008-06-03 07:41:30 51°21.274 3°4.599 15.9461 3.914613 30.711724 12.058452
2008-06-03 07:41:35 51°21.28 3°4.621 15.9487 3.914717 30.712629 12.058452
2008-06-03 07:41:40 51°21.286 3°4.643 15.9482 3.914717 30.712629 12.058452
2008-06-03 07:41:45 51°21.292 3°4.665 15.9486 3.915028 30.715346 12.058452
2008-06-03 07:41:50 51°21.298 3°4.687 15.9482 3.915339 30.718063 12.023628
2008-06-03 07:41:55 51°21.304 3°4.709 15.9479 3.915547 30.719875 12.093276
2008-06-03 07:42:00 51°21.31 3°4.731 15.9463 3.91565 30.721413 12.058452
2008-06-03 07:42:05 51°21.316 3°4.753 15.9484 3.915858 30.723224 12.1281
2008-06-03 07:42:10 51°21.322 3°4.775 15.95 3.915858 30.723224 12.1281
2008-06-03 07:42:15 51°21.328 3°4.796 15.9461 3.916065 30.725036 12.093276
2008-06-03 07:42:20 51°21.334 3°4.818 15.9462 3.916169 30.725941 12.197748
2008-06-03 07:42:25 51°21.34 3°4.84 15.9454 3.916376 30.727753 12.058452
2008-06-03 07:42:30 51°21.346 3°4.862 15.9472 3.916583 30.729564 12.023628
2008-06-03 07:42:35 51°21.352 3°4.884 15.9477 3.916687 30.73047 12.058452
2008-06-03 07:42:40 51°21.359 3°4.906 15.9457 3.916687 30.73047 12.058452
2008-06-03 07:42:45 51°21.365 3°4.928 15.9481 3.916791 30.731376 12.1281
2008-06-03 07:42:50 51°21.371 3°4.95 15.9457 3.916895 30.732914 11.988804
2008-06-03 07:42:55 51°21.377 3°4.972 15.9449 3.916998 30.73382 12.023628
2008-06-03 07:43:00 51°21.383 3°4.994 15.9439 3.917102 30.734726 12.058452
2008-06-03 07:43:05 51°21.39 3°5.016 15.9458 3.917102 30.734726 11.919156
2008-06-03 07:43:10 51°21.396 3°5.038 15.9449 3.917102 30.734726 11.919156
2008-06-03 07:43:15 51°21.402 3°5.06 15.9431 3.917206 30.734999 11.95398
2008-06-03 07:43:20 51°21.408 3°5.082 15.9424 3.917206 30.735632 11.919156
2008-06-03 07:43:24 51°21.413 3°5.1 15.9424 3.917309 30.736537 11.988804
2008-06-03 07:43:30 51°21.42 3°5.127 15.9417 3.917309 30.73717 12.058452
2008-06-03 07:43:35 51°21.425 3°5.15 15.9395 3.917309 30.737803 11.95398
2008-06-03 07:43:40 51°21.43 3°5.173 15.9409 3.917309 30.737803 11.95398
2008-06-03 07:43:45 51°21.435 3°5.195 15.9377 3.917413 30.738076 12.1281
2008-06-03 07:43:50 51°21.44 3°5.218 15.9365 3.917413 30.738709 11.988804
2008-06-03 07:43:55 51°21.446 3°5.241 15.9365 3.917309 30.738436 12.1281
2008-06-03 07:44:00 51°21.451 3°5.264 15.9355 3.917309 30.739068 12.197748
2008-06-03 07:44:04 51°21.455 3°5.282 15.9373 3.917413 30.740607 12.30222
2008-06-03 07:44:10 51°21.461 3°5.309 15.9348 3.917413 30.740607 12.30222
2008-06-03 07:44:15 51°21.467 3°5.332 15.9366 3.917413 30.74124 12.441517
2008-06-03 07:44:20 51°21.472 3°5.355 15.938 3.91762 30.744318 12.371868
2008-06-03 07:44:25 51°21.477 3°5.378 15.938 3.917724 30.745857 12.232572
2008-06-03 07:44:30 51°21.483 3°5.401 15.9362 3.917932 30.748935 12.1281
2008-06-03 07:44:35 51°21.488 3°5.424 15.9363 3.918139 30.750747 12.023628
2008-06-03 07:44:40 51°21.493 3°5.447 15.9371 3.918139 30.750747 12.023628
2008-06-03 07:44:45 51°21.499 3°5.47 15.9352 3.918346 30.753192 11.988804
2008-06-03 07:44:50 51°21.504 3°5.493 15.9349 3.91845 30.754098 11.919156
2008-06-03 07:44:55 51°21.51 3°5.516 15.9348 3.918554 30.755004 11.884332
2008-06-03 07:45:00 51°21.515 3°5.539 15.9322 3.918657 30.755911 11.814684
2008-06-03 07:45:05 51°21.521 3°5.562 15.9335 3.918761 30.756817 11.919156
2008-06-03 07:45:10 51°21.527 3°5.585 15.9317 3.918761 30.756817 11.919156
2008-06-03 07:45:15 51°21.532 3°5.608 15.9315 3.918865 30.757723 11.884332
2008-06-03 07:45:20 51°21.538 3°5.631 15.9272 3.918969 30.758629 11.919156
2008-06-03 07:45:25 51°21.543 3°5.654 15.9279 3.919072 30.760168 11.988804
2008-06-03 07:45:30 51°21.55 3°5.676 15.9258 3.91928 30.762614 12.1281
2008-06-03 07:45:35 51°21.555 3°5.698 15.9263 3.919383 30.764154 12.1281